PWSweather.com
Personal Weather Stations
Station Observations
DL5ARK
SonnebergDE

SonnebergDE

Lat: 50.34904861, Lon: 11.18112087

Elevation: 1214

Station Type: Selfmade

http://www.sumbarg.de

High Low Average
Temperature 70.9°F21.6°C 45.5°F7.5°C 57.7°F14.3°C
Dew Point 58.4°F14.7°C 49.6°F9.8°C 53.6°F12.0°C
Winds 9.9 mph 15.9 kmh Calm Calm 2.0 mph SSE3.2 kmh SSE
Wind Gusts 10.0 mph16.1 kmh -- 2.0 mph3.2 kmh
Humidity 88% 49% 69%
Pressure 30.19 in1022.4 mb 30.11 in1019.6 mb -
Precipitation 0.02 in0.5 mm - -
Hour Temp Dew Point Humidity Winds Wind Gusts Pressure Precip Precip Rate Daily Precip Total
12:01 AM 48.7°F9.3°C 52.3°F11.3°C 83% Calm Calm -- 30.14 in1020.7 mb 0.00 in0.0 mm 0.00 in0.0 mm 0.00 in0.0 mm
12:04 AM 48.7°F9.3°C 52.3°F11.3°C 84% 2.0 mph SE3.2 kmh SE 2.0 mph3.2 kmh 30.14 in1020.7 mb 0.00 in0.0 mm 0.00 in0.0 mm 0.00 in0.0 mm
12:07 AM 48.5°F9.2°C 51.8°F11.0°C 82% Calm Calm -- 30.13 in1020.3 mb 0.00 in0.0 mm 0.00 in0.0 mm 0.00 in0.0 mm
12:10 AM 48.7°F9.3°C 51.9°F11.1°C 83% Calm Calm -- 30.14 in1020.7 mb 0.00 in0.0 mm 0.00 in0.0 mm 0.00 in0.0 mm
12:13 AM 48.4°F9.1°C 51.7°F10.9°C 82% Calm Calm -- 30.14 in1020.7 mb 0.00 in0.0 mm 0.00 in0.0 mm 0.00 in0.0 mm
12:16 AM 48.3°F9.1°C 51.7°F10.9°C 82% Calm Calm -- 30.14 in1020.7 mb 0.00 in0.0 mm 0.00 in0.0 mm 0.00 in0.0 mm
12:19 AM 48.3°F9.1°C 51.6°F10.9°C 82% Calm Calm -- 30.14 in1020.7 mb 0.00 in0.0 mm 0.00 in0.0 mm 0.00 in0.0 mm
12:22 AM 48.9°F9.4°C 51.7°F10.9°C 81% 1.6 mph SW2.6 kmh SW 1.6 mph2.6 kmh 30.13 in1020.3 mb 0.00 in0.0 mm 0.00 in0.0 mm 0.00 in0.0 mm
12:25 AM 49.3°F9.6°C 51.9°F11.1°C 82% Calm Calm -- 30.14 in1020.7 mb 0.00 in0.0 mm 0.00 in0.0 mm 0.00 in0.0 mm
12:28 AM 49.7°F9.8°C 52.5°F11.4°C 83% Calm Calm -- 30.13 in1020.3 mb 0.00 in0.0 mm 0.00 in0.0 mm 0.00 in0.0 mm
12:31 AM 49.9°F9.9°C 52.4°F11.3°C 83% 0.8 mph WSW1.3 kmh WSW 0.8 mph1.3 kmh 30.13 in1020.3 mb 0.00 in0.0 mm 0.00 in0.0 mm 0.00 in0.0 mm
12:34 AM 49.4°F9.7°C 52.7°F11.5°C 84% Calm Calm -- 30.13 in1020.3 mb 0.00 in0.0 mm 0.00 in0.0 mm 0.00 in0.0 mm
12:37 AM 49.3°F9.6°C 52.7°F11.5°C 84% Calm Calm -- 30.13 in1020.3 mb 0.00 in0.0 mm 0.00 in0.0 mm 0.00 in0.0 mm
12:40 AM 49.2°F9.6°C 52.5°F11.4°C 84% Calm Calm -- 30.13 in1020.3 mb 0.00 in0.0 mm 0.00 in0.0 mm 0.00 in0.0 mm
12:43 AM 49.1°F9.5°C 52.5°F11.4°C 83% Calm Calm -- 30.13 in1020.3 mb 0.00 in0.0 mm 0.00 in0.0 mm 0.00 in0.0 mm
12:46 AM 49.4°F9.7°C 52.5°F11.4°C 84% Calm Calm -- 30.14 in1020.7 mb 0.00 in0.0 mm 0.00 in0.0 mm 0.00 in0.0 mm
12:49 AM 49.7°F9.8°C 52.3°F11.3°C 83% 0.4 mph WSW0.6 kmh WSW 0.4 mph0.6 kmh 30.13 in1020.3 mb 0.00 in0.0 mm 0.00 in0.0 mm 0.00 in0.0 mm
12:52 AM 49.0°F9.4°C 52.5°F11.4°C 83% Calm Calm -- 30.14 in1020.7 mb 0.00 in0.0 mm 0.00 in0.0 mm 0.00 in0.0 mm
12:55 AM 49.4°F9.7°C 52.4°F11.3°C 83% 1.2 mph SE1.9 kmh SE 1.2 mph1.9 kmh 30.14 in1020.7 mb 0.00 in0.0 mm 0.00 in0.0 mm 0.00 in0.0 mm
12:58 AM 48.3°F9.1°C 52.3°F11.3°C 84% 0.4 mph SE0.6 kmh SE 0.4 mph0.6 kmh 30.14 in1020.7 mb 0.00 in0.0 mm 0.00 in0.0 mm 0.00 in0.0 mm
01:01 AM 48.4°F9.1°C 52.1°F11.2°C 83% Calm Calm -- 30.14 in1020.7 mb 0.00 in0.0 mm 0.00 in0.0 mm 0.00 in0.0 mm
01:04 AM 48.1°F8.9°C 51.6°F10.9°C 82% Calm Calm -- 30.14 in1020.7 mb 0.00 in0.0 mm 0.00 in0.0 mm 0.00 in0.0 mm
01:07 AM 47.5°F8.6°C 51.4°F10.8°C 82% Calm Calm -- 30.14 in1020.7 mb 0.00 in0.0 mm 0.00 in0.0 mm 0.00 in0.0 mm
01:10 AM 46.9°F8.3°C 50.4°F10.2°C 80% Calm Calm -- 30.14 in1020.7 mb 0.00 in0.0 mm 0.00 in0.0 mm 0.00 in0.0 mm
01:13 AM 47.3°F8.5°C 50.9°F10.5°C 82% Calm Calm -- 30.14 in1020.7 mb 0.00 in0.0 mm 0.00 in0.0 mm 0.00 in0.0 mm
01:16 AM 47.2°F8.4°C 51.1°F10.6°C 81% Calm Calm -- 30.14 in1020.7 mb 0.00 in0.0 mm 0.00 in0.0 mm 0.00 in0.0 mm
01:19 AM 47.6°F8.7°C 50.8°F10.4°C 81% Calm Calm -- 30.14 in1020.7 mb 0.00 in0.0 mm 0.00 in0.0 mm 0.00 in0.0 mm
01:22 AM 47.5°F8.6°C 50.8°F10.4°C 81% Calm Calm -- 30.14 in1020.7 mb 0.00 in0.0 mm 0.00 in0.0 mm 0.00 in0.0 mm
01:25 AM 47.2°F8.4°C 50.6°F10.3°C 81% Calm Calm -- 30.14 in1020.7 mb 0.00 in0.0 mm 0.00 in0.0 mm 0.00 in0.0 mm
01:28 AM 47.2°F8.4°C 50.7°F10.4°C 81% Calm Calm -- 30.14 in1020.7 mb 0.00 in0.0 mm 0.00 in0.0 mm 0.00 in0.0 mm
01:31 AM 46.3°F7.9°C 50.3°F10.2°C 81% Calm Calm -- 30.14 in1020.7 mb 0.00 in0.0 mm 0.00 in0.0 mm 0.00 in0.0 mm
01:34 AM 46.3°F7.9°C 50.1°F10.1°C 80% Calm Calm -- 30.14 in1020.7 mb 0.00 in0.0 mm 0.00 in0.0 mm 0.00 in0.0 mm
01:37 AM 46.4°F8.0°C 50.3°F10.2°C 81% Calm Calm -- 30.14 in1020.7 mb 0.00 in0.0 mm 0.00 in0.0 mm 0.00 in0.0 mm
01:40 AM 46.3°F7.9°C 49.7°F9.8°C 79% Calm Calm -- 30.13 in1020.3 mb 0.00 in0.0 mm 0.00 in0.0 mm 0.00 in0.0 mm
01:43 AM 46.2°F7.9°C 49.7°F9.8°C 80% Calm Calm -- 30.13 in1020.3 mb 0.00 in0.0 mm 0.00 in0.0 mm 0.00 in0.0 mm
01:46 AM 45.8°F7.7°C 49.8°F9.9°C 80% Calm Calm -- 30.13 in1020.3 mb 0.00 in0.0 mm 0.00 in0.0 mm 0.00 in0.0 mm
01:49 AM 45.5°F7.5°C 49.9°F9.9°C 81% 0.4 mph ESE0.6 kmh ESE 0.4 mph0.6 kmh 30.13 in1020.3 mb 0.00 in0.0 mm 0.00 in0.0 mm 0.00 in0.0 mm
01:52 AM 45.8°F7.7°C 49.6°F9.8°C 81% Calm Calm -- 30.13 in1020.3 mb 0.00 in0.0 mm 0.00 in0.0 mm 0.00 in0.0 mm
01:55 AM 46.3°F7.9°C 49.7°F9.8°C 81% Calm Calm -- 30.13 in1020.3 mb 0.00 in0.0 mm 0.00 in0.0 mm 0.00 in0.0 mm
01:58 AM 46.9°F8.3°C 49.9°F9.9°C 82% Calm Calm -- 30.13 in1020.3 mb 0.00 in0.0 mm 0.00 in0.0 mm 0.00 in0.0 mm
02:01 AM 46.7°F8.2°C 49.9°F9.9°C 82% Calm Calm -- 30.13 in1020.3 mb 0.00 in0.0 mm 0.00 in0.0 mm 0.00 in0.0 mm
02:04 AM 47.2°F8.4°C 49.9°F9.9°C 82% Calm Calm -- 30.13 in1020.3 mb 0.00 in0.0 mm 0.00 in0.0 mm 0.00 in0.0 mm
02:07 AM 47.3°F8.5°C 50.2°F10.1°C 82% Calm Calm -- 30.13 in1020.3 mb 0.00 in0.0 mm 0.00 in0.0 mm 0.00 in0.0 mm
02:10 AM 47.9°F8.8°C 50.7°F10.4°C 82% Calm Calm -- 30.13 in1020.3 mb 0.00 in0.0 mm 0.00 in0.0 mm 0.00 in0.0 mm
02:13 AM 48.7°F9.3°C 51.0°F10.6°C 84% 0.8 mph SW1.3 kmh SW 0.8 mph1.3 kmh 30.13 in1020.3 mb 0.00 in0.0 mm 0.00 in0.0 mm 0.00 in0.0 mm
02:16 AM 47.6°F8.7°C 51.3°F10.7°C 84% Calm Calm -- 30.13 in1020.3 mb 0.00 in0.0 mm 0.00 in0.0 mm 0.00 in0.0 mm
02:19 AM 47.2°F8.4°C 51.1°F10.6°C 83% Calm Calm -- 30.13 in1020.3 mb 0.00 in0.0 mm 0.00 in0.0 mm 0.00 in0.0 mm
02:22 AM 47.1°F8.4°C 50.8°F10.4°C 83% Calm Calm -- 30.13 in1020.3 mb 0.00 in0.0 mm 0.00 in0.0 mm 0.00 in0.0 mm
02:25 AM 47.2°F8.4°C 50.7°F10.4°C 83% Calm Calm -- 30.13 in1020.3 mb 0.00 in0.0 mm 0.00 in0.0 mm 0.00 in0.0 mm
02:28 AM 47.1°F8.4°C 50.4°F10.2°C 83% Calm Calm -- 30.13 in1020.3 mb 0.00 in0.0 mm 0.00 in0.0 mm 0.00 in0.0 mm
02:31 AM 47.1°F8.4°C 50.4°F10.2°C 83% Calm Calm -- 30.13 in1020.3 mb 0.00 in0.0 mm 0.00 in0.0 mm 0.00 in0.0 mm
02:34 AM 46.5°F8.1°C 50.5°F10.3°C 83% Calm Calm -- 30.13 in1020.3 mb 0.00 in0.0 mm 0.00 in0.0 mm 0.00 in0.0 mm
02:37 AM 47.1°F8.4°C 49.9°F9.9°C 81% Calm Calm -- 30.13 in1020.3 mb 0.00 in0.0 mm 0.00 in0.0 mm 0.00 in0.0 mm
02:40 AM 47.3°F8.5°C 50.4°F10.2°C 83% Calm Calm -- 30.13 in1020.3 mb 0.00 in0.0 mm 0.00 in0.0 mm 0.00 in0.0 mm
02:43 AM 47.0°F8.3°C 50.5°F10.3°C 82% Calm Calm -- 30.13 in1020.3 mb 0.00 in0.0 mm 0.00 in0.0 mm 0.00 in0.0 mm
02:46 AM 47.3°F8.5°C 50.5°F10.3°C 83% Calm Calm -- 30.13 in1020.3 mb 0.00 in0.0 mm 0.00 in0.0 mm 0.00 in0.0 mm
02:49 AM 47.1°F8.4°C 50.5°F10.3°C 83% 1.2 mph WSW1.9 kmh WSW 1.2 mph1.9 kmh 30.13 in1020.3 mb 0.00 in0.0 mm 0.00 in0.0 mm 0.00 in0.0 mm
02:52 AM 48.0°F8.9°C 50.3°F10.2°C 83% Calm Calm -- 30.13 in1020.3 mb 0.00 in0.0 mm 0.00 in0.0 mm 0.00 in0.0 mm
02:55 AM 48.4°F9.1°C 50.8°F10.4°C 85% 1.6 mph W2.6 kmh W 1.6 mph2.6 kmh 30.13 in1020.3 mb 0.00 in0.0 mm 0.00 in0.0 mm 0.00 in0.0 mm
02:58 AM 48.4°F9.1°C 51.1°F10.6°C 85% 1.5 mph WNW2.4 kmh WNW 1.6 mph2.6 kmh 30.13 in1020.3 mb 0.00 in0.0 mm 0.00 in0.0 mm 0.00 in0.0 mm
03:01 AM 48.7°F9.3°C 51.2°F10.7°C 85% 0.4 mph WSW0.6 kmh WSW 0.4 mph0.6 kmh 30.13 in1020.3 mb 0.00 in0.0 mm 0.00 in0.0 mm 0.00 in0.0 mm
03:04 AM 48.0°F8.9°C 51.5°F10.8°C 86% 1.2 mph SE1.9 kmh SE 1.2 mph1.9 kmh 30.13 in1020.3 mb 0.00 in0.0 mm 0.00 in0.0 mm 0.00 in0.0 mm
03:07 AM 48.1°F8.9°C 51.5°F10.8°C 86% Calm Calm -- 30.13 in1020.3 mb 0.00 in0.0 mm 0.00 in0.0 mm 0.00 in0.0 mm
03:10 AM 48.2°F9.0°C 51.1°F10.6°C 84% Calm Calm -- 30.13 in1020.3 mb 0.00 in0.0 mm 0.00 in0.0 mm 0.00 in0.0 mm
03:13 AM 48.1°F8.9°C 51.4°F10.8°C 85% Calm Calm -- 30.13 in1020.3 mb 0.00 in0.0 mm 0.00 in0.0 mm 0.00 in0.0 mm
03:16 AM 47.4°F8.6°C 51.1°F10.6°C 85% Calm Calm -- 30.13 in1020.3 mb 0.00 in0.0 mm 0.00 in0.0 mm 0.00 in0.0 mm
03:19 AM 47.8°F8.8°C 51.0°F10.6°C 84% Calm Calm -- 30.13 in1020.3 mb 0.00 in0.0 mm 0.00 in0.0 mm 0.00 in0.0 mm
03:22 AM 47.8°F8.8°C 50.8°F10.4°C 83% Calm Calm -- 30.13 in1020.3 mb 0.00 in0.0 mm 0.00 in0.0 mm 0.00 in0.0 mm
03:25 AM 48.1°F8.9°C 50.5°F10.3°C 83% Calm Calm -- 30.13 in1020.3 mb 0.00 in0.0 mm 0.00 in0.0 mm 0.00 in0.0 mm
03:28 AM 48.4°F9.1°C 51.4°F10.8°C 85% Calm Calm -- 30.13 in1020.3 mb 0.00 in0.0 mm 0.00 in0.0 mm 0.00 in0.0 mm
03:31 AM 48.1°F8.9°C 51.3°F10.7°C 85% Calm Calm -- 30.13 in1020.3 mb 0.00 in0.0 mm 0.00 in0.0 mm 0.00 in0.0 mm
03:34 AM 48.2°F9.0°C 51.2°F10.7°C 85% Calm Calm -- 30.13 in1020.3 mb 0.00 in0.0 mm 0.00 in0.0 mm 0.00 in0.0 mm
03:37 AM 48.2°F9.0°C 51.2°F10.7°C 84% Calm Calm -- 30.13 in1020.3 mb 0.00 in0.0 mm 0.00 in0.0 mm 0.00 in0.0 mm
03:40 AM 48.3°F9.1°C 51.2°F10.7°C 85% Calm Calm -- 30.13 in1020.3 mb 0.00 in0.0 mm 0.00 in0.0 mm 0.00 in0.0 mm
03:43 AM 48.3°F9.1°C 51.4°F10.8°C 85% Calm Calm -- 30.13 in1020.3 mb 0.00 in0.0 mm 0.00 in0.0 mm 0.00 in0.0 mm
03:46 AM 48.3°F9.1°C 51.2°F10.7°C 84% 0.8 mph SE1.3 kmh SE 0.8 mph1.3 kmh 30.13 in1020.3 mb 0.00 in0.0 mm 0.00 in0.0 mm 0.00 in0.0 mm
03:49 AM 48.4°F9.1°C 51.4°F10.8°C 85% Calm Calm -- 30.13 in1020.3 mb 0.00 in0.0 mm 0.00 in0.0 mm 0.00 in0.0 mm
03:52 AM 48.2°F9.0°C 51.3°F10.7°C 85% Calm Calm -- 30.13 in1020.3 mb 0.00 in0.0 mm 0.00 in0.0 mm 0.00 in0.0 mm
03:55 AM 48.1°F8.9°C 51.2°F10.7°C 84% Calm Calm -- 30.13 in1020.3 mb 0.00 in0.0 mm 0.00 in0.0 mm 0.00 in0.0 mm
03:58 AM 48.0°F8.9°C 51.1°F10.6°C 85% Calm Calm -- 30.13 in1020.3 mb 0.00 in0.0 mm 0.00 in0.0 mm 0.00 in0.0 mm
04:01 AM 48.0°F8.9°C 51.1°F10.6°C 85% Calm Calm -- 30.13 in1020.3 mb 0.00 in0.0 mm 0.00 in0.0 mm 0.00 in0.0 mm
04:04 AM 47.9°F8.8°C 51.2°F10.7°C 84% Calm Calm -- 30.13 in1020.3 mb 0.00 in0.0 mm 0.00 in0.0 mm 0.00 in0.0 mm
04:07 AM 47.9°F8.8°C 50.9°F10.5°C 84% Calm Calm -- 30.13 in1020.3 mb 0.00 in0.0 mm 0.00 in0.0 mm 0.00 in0.0 mm
04:10 AM 48.0°F8.9°C 50.9°F10.5°C 84% Calm Calm -- 30.13 in1020.3 mb 0.00 in0.0 mm 0.00 in0.0 mm 0.00 in0.0 mm
04:13 AM 48.0°F8.9°C 50.9°F10.5°C 84% Calm Calm -- 30.13 in1020.3 mb 0.00 in0.0 mm 0.00 in0.0 mm 0.00 in0.0 mm
04:16 AM 48.2°F9.0°C 51.1°F10.6°C 84% Calm Calm -- 30.13 in1020.3 mb 0.00 in0.0 mm 0.00 in0.0 mm 0.00 in0.0 mm
04:19 AM 48.3°F9.1°C 51.1°F10.6°C 85% Calm Calm -- 30.13 in1020.3 mb 0.00 in0.0 mm 0.00 in0.0 mm 0.00 in0.0 mm
04:22 AM 48.3°F9.1°C 51.3°F10.7°C 85% Calm Calm -- 30.13 in1020.3 mb 0.00 in0.0 mm 0.00 in0.0 mm 0.00 in0.0 mm
04:25 AM 48.4°F9.1°C 51.1°F10.6°C 85% Calm Calm -- 30.13 in1020.3 mb 0.00 in0.0 mm 0.00 in0.0 mm 0.00 in0.0 mm
04:28 AM 48.0°F8.9°C 51.5°F10.8°C 85% 0.4 mph ESE0.6 kmh ESE 0.4 mph0.6 kmh 30.13 in1020.3 mb 0.00 in0.0 mm 0.00 in0.0 mm 0.00 in0.0 mm
04:31 AM 48.0°F8.9°C 51.3°F10.7°C 85% Calm Calm -- 30.13 in1020.3 mb 0.00 in0.0 mm 0.00 in0.0 mm 0.00 in0.0 mm
04:34 AM 48.3°F9.1°C 51.3°F10.7°C 85% Calm Calm -- 30.13 in1020.3 mb 0.00 in0.0 mm 0.00 in0.0 mm 0.00 in0.0 mm
04:37 AM 48.3°F9.1°C 51.1°F10.6°C 85% Calm Calm -- 30.13 in1020.3 mb 0.00 in0.0 mm 0.00 in0.0 mm 0.00 in0.0 mm
04:40 AM 48.2°F9.0°C 51.4°F10.8°C 85% Calm Calm -- 30.13 in1020.3 mb 0.00 in0.0 mm 0.00 in0.0 mm 0.00 in0.0 mm
04:43 AM 48.4°F9.1°C 51.2°F10.7°C 85% Calm Calm -- 30.12 in1020.0 mb 0.00 in0.0 mm 0.00 in0.0 mm 0.00 in0.0 mm
04:46 AM 48.2°F9.0°C 51.4°F10.8°C 86% Calm Calm -- 30.12 in1020.0 mb 0.00 in0.0 mm 0.00 in0.0 mm 0.00 in0.0 mm
04:49 AM 48.2°F9.0°C 51.3°F10.7°C 85% Calm Calm -- 30.12 in1020.0 mb 0.00 in0.0 mm 0.00 in0.0 mm 0.00 in0.0 mm
04:52 AM 48.3°F9.1°C 51.3°F10.7°C 85% Calm Calm -- 30.12 in1020.0 mb 0.00 in0.0 mm 0.00 in0.0 mm 0.00 in0.0 mm
04:55 AM 48.3°F9.1°C 51.2°F10.7°C 85% Calm Calm -- 30.12 in1020.0 mb 0.00 in0.0 mm 0.00 in0.0 mm 0.00 in0.0 mm
04:58 AM 48.2°F9.0°C 51.4°F10.8°C 85% 0.4 mph NNW0.6 kmh NNW 0.4 mph0.6 kmh 30.12 in1020.0 mb 0.00 in0.0 mm 0.00 in0.0 mm 0.00 in0.0 mm
05:01 AM 48.8°F9.3°C 50.9°F10.5°C 84% Calm Calm -- 30.12 in1020.0 mb 0.00 in0.0 mm 0.00 in0.0 mm 0.00 in0.0 mm
05:07 AM 48.1°F8.9°C 51.0°F10.6°C 84% Calm Calm -- 30.12 in1020.0 mb 0.00 in0.0 mm 0.00 in0.0 mm 0.00 in0.0 mm
05:10 AM 48.0°F8.9°C 51.0°F10.6°C 84% Calm Calm -- 30.11 in1019.6 mb 0.00 in0.0 mm 0.00 in0.0 mm 0.00 in0.0 mm
05:13 AM 48.1°F8.9°C 51.2°F10.7°C 85% Calm Calm -- 30.12 in1020.0 mb 0.00 in0.0 mm 0.00 in0.0 mm 0.00 in0.0 mm
05:16 AM 48.3°F9.1°C 51.1°F10.6°C 85% Calm Calm -- 30.12 in1020.0 mb 0.00 in0.0 mm 0.00 in0.0 mm 0.00 in0.0 mm
05:19 AM 48.1°F8.9°C 51.0°F10.6°C 85% Calm Calm -- 30.12 in1020.0 mb 0.00 in0.0 mm 0.00 in0.0 mm 0.00 in0.0 mm
05:22 AM 47.4°F8.6°C 51.1°F10.6°C 84% Calm Calm -- 30.11 in1019.6 mb 0.00 in0.0 mm 0.00 in0.0 mm 0.00 in0.0 mm
05:25 AM 47.2°F8.4°C 50.9°F10.5°C 84% Calm Calm -- 30.12 in1020.0 mb 0.00 in0.0 mm 0.00 in0.0 mm 0.00 in0.0 mm
05:28 AM 47.4°F8.6°C 50.6°F10.3°C 84% Calm Calm -- 30.12 in1020.0 mb 0.00 in0.0 mm 0.00 in0.0 mm 0.00 in0.0 mm
05:31 AM 47.4°F8.6°C 50.7°F10.4°C 84% Calm Calm -- 30.12 in1020.0 mb 0.00 in0.0 mm 0.00 in0.0 mm 0.00 in0.0 mm
05:34 AM 47.5°F8.6°C 51.0°F10.6°C 85% Calm Calm -- 30.12 in1020.0 mb 0.00 in0.0 mm 0.00 in0.0 mm 0.00 in0.0 mm
05:37 AM 47.1°F8.4°C 50.8°F10.4°C 85% 2.4 mph SE3.9 kmh SE 2.4 mph3.9 kmh 30.13 in1020.3 mb 0.00 in0.0 mm 0.00 in0.0 mm 0.00 in0.0 mm
05:40 AM 47.1°F8.4°C 50.4°F10.2°C 84% Calm Calm -- 30.13 in1020.3 mb 0.00 in0.0 mm 0.00 in0.0 mm 0.00 in0.0 mm
05:43 AM 47.3°F8.5°C 50.4°F10.2°C 84% Calm Calm -- 30.13 in1020.3 mb 0.00 in0.0 mm 0.00 in0.0 mm 0.00 in0.0 mm
05:46 AM 47.1°F8.4°C 50.4°F10.2°C 84% Calm Calm -- 30.13 in1020.3 mb 0.00 in0.0 mm 0.00 in0.0 mm 0.00 in0.0 mm
05:49 AM 47.4°F8.6°C 50.4°F10.2°C 83% Calm Calm -- 30.13 in1020.3 mb 0.00 in0.0 mm 0.00 in0.0 mm 0.00 in0.0 mm
05:52 AM 47.3°F8.5°C 50.5°F10.3°C 84% Calm Calm -- 30.13 in1020.3 mb 0.00 in0.0 mm 0.00 in0.0 mm 0.00 in0.0 mm
05:55 AM 47.9°F8.8°C 50.5°F10.3°C 84% Calm Calm -- 30.13 in1020.3 mb 0.00 in0.0 mm 0.00 in0.0 mm 0.00 in0.0 mm
05:58 AM 48.4°F9.1°C 50.7°F10.4°C 84% Calm Calm -- 30.13 in1020.3 mb 0.00 in0.0 mm 0.00 in0.0 mm 0.00 in0.0 mm
06:01 AM 48.3°F9.1°C 51.0°F10.6°C 85% Calm Calm -- 30.13 in1020.3 mb 0.00 in0.0 mm 0.00 in0.0 mm 0.00 in0.0 mm
06:04 AM 48.5°F9.2°C 50.7°F10.4°C 84% Calm Calm -- 30.14 in1020.7 mb 0.00 in0.0 mm 0.00 in0.0 mm 0.00 in0.0 mm
06:07 AM 49.1°F9.5°C 51.3°F10.7°C 85% Calm Calm -- 30.14 in1020.7 mb 0.00 in0.0 mm 0.00 in0.0 mm 0.00 in0.0 mm
06:13 AM 49.4°F9.7°C 51.5°F10.8°C 86% Calm Calm -- 30.13 in1020.3 mb 0.00 in0.0 mm 0.00 in0.0 mm 0.00 in0.0 mm
06:16 AM 49.7°F9.8°C 51.8°F11.0°C 86% Calm Calm -- 30.13 in1020.3 mb 0.00 in0.0 mm 0.00 in0.0 mm 0.00 in0.0 mm
06:19 AM 50.1°F10.1°C 52.1°F11.2°C 87% Calm Calm -- 30.13 in1020.3 mb 0.00 in0.0 mm 0.00 in0.0 mm 0.00 in0.0 mm
06:22 AM 50.5°F10.3°C 52.1°F11.2°C 86% Calm Calm -- 30.13 in1020.3 mb 0.00 in0.0 mm 0.00 in0.0 mm 0.00 in0.0 mm
06:25 AM 50.6°F10.3°C 52.4°F11.3°C 87% 0.4 mph S0.6 kmh S 0.4 mph0.6 kmh 30.13 in1020.3 mb 0.00 in0.0 mm 0.00 in0.0 mm 0.00 in0.0 mm
06:28 AM 50.9°F10.5°C 52.7°F11.5°C 88% Calm Calm -- 30.13 in1020.3 mb 0.00 in0.0 mm 0.00 in0.0 mm 0.00 in0.0 mm
06:31 AM 51.1°F10.6°C 52.9°F11.6°C 88% 1.2 mph SW1.9 kmh SW 1.2 mph1.9 kmh 30.13 in1020.3 mb 0.00 in0.0 mm 0.00 in0.0 mm 0.00 in0.0 mm
06:34 AM 51.6°F10.9°C 53.0°F11.7°C 88% 1.2 mph SW1.9 kmh SW 1.2 mph1.9 kmh 30.13 in1020.3 mb 0.00 in0.0 mm 0.00 in0.0 mm 0.00 in0.0 mm
06:37 AM 51.7°F10.9°C 53.4°F11.9°C 88% Calm Calm -- 30.13 in1020.3 mb 0.00 in0.0 mm 0.00 in0.0 mm 0.00 in0.0 mm
06:40 AM 51.8°F11.0°C 53.2°F11.8°C 88% Calm Calm -- 30.13 in1020.3 mb 0.00 in0.0 mm 0.00 in0.0 mm 0.00 in0.0 mm
06:43 AM 52.0°F11.1°C 53.4°F11.9°C 87% Calm Calm -- 30.13 in1020.3 mb 0.00 in0.0 mm 0.00 in0.0 mm 0.00 in0.0 mm
06:46 AM 52.4°F11.3°C 53.3°F11.8°C 87% Calm Calm -- 30.13 in1020.3 mb 0.00 in0.0 mm 0.00 in0.0 mm 0.00 in0.0 mm
06:49 AM 52.5°F11.4°C 53.4°F11.9°C 87% Calm Calm -- 30.13 in1020.3 mb 0.00 in0.0 mm 0.00 in0.0 mm 0.00 in0.0 mm
06:52 AM 52.6°F11.4°C 53.5°F11.9°C 87% Calm Calm -- 30.13 in1020.3 mb 0.00 in0.0 mm 0.00 in0.0 mm 0.00 in0.0 mm
06:55 AM 53.0°F11.7°C 53.7°F12.1°C 87% Calm Calm -- 30.13 in1020.3 mb 0.00 in0.0 mm 0.00 in0.0 mm 0.00 in0.0 mm
06:58 AM 53.4°F11.9°C 53.9°F12.2°C 87% Calm Calm -- 30.13 in1020.3 mb 0.00 in0.0 mm 0.00 in0.0 mm 0.00 in0.0 mm
07:04 AM 53.8°F12.1°C 54.2°F12.3°C 87% Calm Calm -- 30.13 in1020.3 mb 0.00 in0.0 mm 0.00 in0.0 mm 0.00 in0.0 mm
07:07 AM 54.4°F12.4°C 53.8°F12.1°C 86% 1.2 mph NNE1.9 kmh NNE 1.2 mph1.9 kmh 30.13 in1020.3 mb 0.00 in0.0 mm 0.00 in0.0 mm 0.00 in0.0 mm
07:10 AM 54.8°F12.7°C 53.9°F12.2°C 86% Calm Calm -- 30.13 in1020.3 mb 0.00 in0.0 mm 0.00 in0.0 mm 0.00 in0.0 mm
07:13 AM 55.2°F12.9°C 54.2°F12.3°C 86% Calm Calm -- 30.13 in1020.3 mb 0.00 in0.0 mm 0.00 in0.0 mm 0.00 in0.0 mm
07:16 AM 55.4°F13.0°C 54.3°F12.4°C 85% Calm Calm -- 30.13 in1020.3 mb 0.00 in0.0 mm 0.00 in0.0 mm 0.00 in0.0 mm
07:19 AM 55.6°F13.1°C 54.4°F12.4°C 85% Calm Calm -- 30.13 in1020.3 mb 0.00 in0.0 mm 0.00 in0.0 mm 0.00 in0.0 mm
07:22 AM 55.7°F13.2°C 54.4°F12.4°C 85% 0.8 mph 1.3 kmh 0.8 mph1.3 kmh 30.13 in1020.3 mb 0.00 in0.0 mm 0.00 in0.0 mm 0.00 in0.0 mm
07:25 AM 55.6°F13.1°C 54.3°F12.4°C 85% Calm Calm -- 30.13 in1020.3 mb 0.00 in0.0 mm 0.00 in0.0 mm 0.00 in0.0 mm
07:28 AM 55.7°F13.2°C 54.7°F12.6°C 84% Calm Calm -- 30.13 in1020.3 mb 0.00 in0.0 mm 0.00 in0.0 mm 0.00 in0.0 mm
07:31 AM 55.7°F13.2°C 54.4°F12.4°C 84% Calm Calm -- 30.13 in1020.3 mb 0.00 in0.0 mm 0.00 in0.0 mm 0.00 in0.0 mm
07:34 AM 55.7°F13.2°C 54.8°F12.7°C 84% Calm Calm -- 30.13 in1020.3 mb 0.00 in0.0 mm 0.00 in0.0 mm 0.00 in0.0 mm
07:37 AM 55.9°F13.3°C 55.0°F12.8°C 84% Calm Calm -- 30.13 in1020.3 mb 0.00 in0.0 mm 0.00 in0.0 mm 0.00 in0.0 mm
07:40 AM 55.9°F13.3°C 54.9°F12.7°C 83% Calm Calm -- 30.13 in1020.3 mb 0.00 in0.0 mm 0.00 in0.0 mm 0.00 in0.0 mm
07:43 AM 56.1°F13.4°C 55.2°F12.9°C 84% 3.2 mph SW5.1 kmh SW 3.3 mph5.3 kmh 30.13 in1020.3 mb 0.00 in0.0 mm 0.00 in0.0 mm 0.00 in0.0 mm
07:46 AM 55.9°F13.3°C 55.1°F12.8°C 83% 0.4 mph ENE0.6 kmh ENE 0.4 mph0.6 kmh 30.13 in1020.3 mb 0.00 in0.0 mm 0.00 in0.0 mm 0.00 in0.0 mm
07:49 AM 55.7°F13.2°C 54.7°F12.6°C 83% 1.6 mph ESE2.6 kmh ESE 1.6 mph2.6 kmh 30.12 in1020.0 mb 0.00 in0.0 mm 0.00 in0.0 mm 0.00 in0.0 mm
07:52 AM 55.7°F13.2°C 54.9°F12.7°C 83% 4.0 mph SE6.4 kmh SE 4.1 mph6.6 kmh 30.12 in1020.0 mb 0.00 in0.0 mm 0.00 in0.0 mm 0.00 in0.0 mm
07:55 AM 55.9°F13.3°C 54.9°F12.7°C 82% 1.6 mph ENE2.6 kmh ENE 1.6 mph2.6 kmh 30.12 in1020.0 mb 0.00 in0.0 mm 0.00 in0.0 mm 0.00 in0.0 mm
07:58 AM 55.9°F13.3°C 54.8°F12.7°C 82% 4.4 mph SE7.1 kmh SE 4.5 mph7.2 kmh 30.12 in1020.0 mb 0.00 in0.0 mm 0.00 in0.0 mm 0.00 in0.0 mm
08:01 AM 56.4°F13.6°C 55.1°F12.8°C 83% 1.2 mph E1.9 kmh E 1.2 mph1.9 kmh 30.13 in1020.3 mb 0.00 in0.0 mm 0.00 in0.0 mm 0.00 in0.0 mm
08:04 AM 56.4°F13.6°C 54.9°F12.7°C 81% 4.8 mph ESE7.7 kmh ESE 4.8 mph7.7 kmh 30.13 in1020.3 mb 0.00 in0.0 mm 0.00 in0.0 mm 0.00 in0.0 mm
08:07 AM 56.6°F13.7°C 55.1°F12.8°C 81% 0.8 mph ESE1.3 kmh ESE 0.8 mph1.3 kmh 30.12 in1020.0 mb 0.00 in0.0 mm 0.00 in0.0 mm 0.00 in0.0 mm
08:10 AM 56.8°F13.8°C 55.0°F12.8°C 81% 1.2 mph ENE1.9 kmh ENE 1.2 mph1.9 kmh 30.13 in1020.3 mb 0.00 in0.0 mm 0.00 in0.0 mm 0.02 in0.5 mm
08:13 AM 57.3°F14.1°C 55.0°F12.8°C 80% 0.4 mph E0.6 kmh E 0.4 mph0.6 kmh 30.13 in1020.3 mb 0.00 in0.0 mm 0.00 in0.0 mm 0.02 in0.5 mm
08:16 AM 57.9°F14.4°C 55.4°F13.0°C 81% Calm Calm -- 30.13 in1020.3 mb 0.00 in0.0 mm 0.00 in0.0 mm 0.02 in0.5 mm
08:19 AM 58.6°F14.8°C 56.1°F13.4°C 81% 1.2 mph NE1.9 kmh NE 1.2 mph1.9 kmh 30.13 in1020.3 mb 0.00 in0.0 mm 0.00 in0.0 mm 0.02 in0.5 mm
08:22 AM 58.4°F14.7°C 55.4°F13.0°C 79% 4.8 mph NE7.7 kmh NE 4.8 mph7.7 kmh 30.13 in1020.3 mb 0.00 in0.0 mm 0.00 in0.0 mm 0.02 in0.5 mm
08:25 AM 58.6°F14.8°C 55.5°F13.1°C 79% 0.4 mph NE0.6 kmh NE 0.4 mph0.6 kmh 30.13 in1020.3 mb 0.00 in0.0 mm 0.00 in0.0 mm 0.02 in0.5 mm
08:28 AM 59.2°F15.1°C 55.8°F13.2°C 79% 1.2 mph NNW1.9 kmh NNW 1.2 mph1.9 kmh 30.13 in1020.3 mb 0.00 in0.0 mm 0.00 in0.0 mm 0.02 in0.5 mm
08:31 AM 59.3°F15.2°C 55.7°F13.2°C 78% 4.4 mph NNW7.1 kmh NNW 4.5 mph7.2 kmh 30.13 in1020.3 mb 0.00 in0.0 mm 0.00 in0.0 mm 0.02 in0.5 mm
08:34 AM 59.0°F15.0°C 55.2°F12.9°C 76% 2.0 mph 3.2 kmh 2.0 mph3.2 kmh 30.13 in1020.3 mb 0.00 in0.0 mm 0.00 in0.0 mm 0.02 in0.5 mm
08:37 AM 60.4°F15.8°C 55.9°F13.3°C 77% 2.4 mph ESE3.9 kmh ESE 2.4 mph3.9 kmh 30.14 in1020.7 mb 0.00 in0.0 mm 0.00 in0.0 mm 0.02 in0.5 mm
08:40 AM 60.5°F15.8°C 55.6°F13.1°C 76% 2.4 mph NNW3.9 kmh NNW 2.4 mph3.9 kmh 30.13 in1020.3 mb 0.00 in0.0 mm 0.00 in0.0 mm 0.02 in0.5 mm
08:43 AM 61.3°F16.3°C 56.0°F13.3°C 76% 2.8 mph E4.5 kmh E 2.9 mph4.7 kmh 30.13 in1020.3 mb 0.00 in0.0 mm 0.00 in0.0 mm 0.02 in0.5 mm
08:46 AM 61.3°F16.3°C 56.3°F13.5°C 76% 2.4 mph ENE3.9 kmh ENE 2.5 mph4.0 kmh 30.13 in1020.3 mb 0.00 in0.0 mm 0.00 in0.0 mm 0.02 in0.5 mm
08:49 AM 61.1°F16.2°C 56.4°F13.6°C 76% 5.7 mph SE9.2 kmh SE 5.7 mph9.2 kmh 30.13 in1020.3 mb 0.00 in0.0 mm 0.00 in0.0 mm 0.02 in0.5 mm
08:52 AM 61.4°F16.3°C 56.5°F13.6°C 76% 2.4 mph ENE3.9 kmh ENE 2.4 mph3.9 kmh 30.13 in1020.3 mb 0.00 in0.0 mm 0.00 in0.0 mm 0.02 in0.5 mm
08:55 AM 61.9°F16.6°C 56.6°F13.7°C 75% 1.2 mph ENE1.9 kmh ENE 1.2 mph1.9 kmh 30.13 in1020.3 mb 0.00 in0.0 mm 0.00 in0.0 mm 0.02 in0.5 mm
08:58 AM 60.9°F16.1°C 56.0°F13.3°C 74% 4.0 mph NNW6.4 kmh NNW 4.0 mph6.4 kmh 30.13 in1020.3 mb 0.00 in0.0 mm 0.00 in0.0 mm 0.02 in0.5 mm
09:01 AM 61.3°F16.3°C 56.4°F13.6°C 74% 4.8 mph ENE7.7 kmh ENE 4.9 mph7.9 kmh 30.13 in1020.3 mb 0.00 in0.0 mm 0.00 in0.0 mm 0.02 in0.5 mm
09:04 AM 61.5°F16.4°C 56.1°F13.4°C 73% 1.6 mph ENE2.6 kmh ENE 1.6 mph2.6 kmh 30.13 in1020.3 mb 0.00 in0.0 mm 0.00 in0.0 mm 0.02 in0.5 mm
09:07 AM 62.6°F17.0°C 56.8°F13.8°C 73% 3.2 mph ESE5.1 kmh ESE 3.3 mph5.3 kmh 30.13 in1020.3 mb 0.00 in0.0 mm 0.00 in0.0 mm 0.02 in0.5 mm
09:10 AM 62.5°F16.9°C 56.9°F13.8°C 73% 3.2 mph SE5.1 kmh SE 3.3 mph5.3 kmh 30.13 in1020.3 mb 0.00 in0.0 mm 0.00 in0.0 mm 0.02 in0.5 mm
09:13 AM 62.5°F16.9°C 56.4°F13.6°C 71% 4.5 mph ENE7.2 kmh ENE 4.5 mph7.2 kmh 30.13 in1020.3 mb 0.00 in0.0 mm 0.00 in0.0 mm 0.02 in0.5 mm
09:16 AM 62.4°F16.9°C 56.6°F13.7°C 71% 2.8 mph E4.5 kmh E 2.9 mph4.7 kmh 30.13 in1020.3 mb 0.00 in0.0 mm 0.00 in0.0 mm 0.02 in0.5 mm
09:19 AM 62.5°F16.9°C 56.5°F13.6°C 71% 1.6 mph E2.6 kmh E 1.6 mph2.6 kmh 30.13 in1020.3 mb 0.00 in0.0 mm 0.00 in0.0 mm 0.02 in0.5 mm
09:22 AM 62.8°F17.1°C 55.7°F13.2°C 69% 6.4 mph ESE10.3 kmh ESE 6.4 mph10.3 kmh 30.13 in1020.3 mb 0.00 in0.0 mm 0.00 in0.0 mm 0.02 in0.5 mm
09:25 AM 62.9°F17.2°C 56.0°F13.3°C 70% 2.8 mph ESE4.5 kmh ESE 2.8 mph4.5 kmh 30.13 in1020.3 mb 0.00 in0.0 mm 0.00 in0.0 mm 0.02 in0.5 mm
09:28 AM 63.5°F17.5°C 56.2°F13.4°C 70% 5.2 mph ESE8.4 kmh ESE 5.2 mph8.4 kmh 30.13 in1020.3 mb 0.00 in0.0 mm 0.00 in0.0 mm 0.02 in0.5 mm
09:31 AM 63.8°F17.7°C 56.5°F13.6°C 70% 0.4 mph 0.6 kmh 0.4 mph0.6 kmh 30.13 in1020.3 mb 0.00 in0.0 mm 0.00 in0.0 mm 0.02 in0.5 mm
09:34 AM 64.3°F17.9°C 56.8°F13.8°C 70% 1.6 mph ESE2.6 kmh ESE 1.6 mph2.6 kmh 30.13 in1020.3 mb 0.00 in0.0 mm 0.00 in0.0 mm 0.02 in0.5 mm
09:37 AM 64.1°F17.8°C 56.4°F13.6°C 69% 4.0 mph SE6.4 kmh SE 4.1 mph6.6 kmh 30.14 in1020.7 mb 0.00 in0.0 mm 0.00 in0.0 mm 0.02 in0.5 mm
09:40 AM 63.6°F17.6°C 56.2°F13.4°C 69% 3.2 mph SE5.1 kmh SE 3.3 mph5.3 kmh 30.14 in1020.7 mb 0.00 in0.0 mm 0.00 in0.0 mm 0.02 in0.5 mm
09:43 AM 63.6°F17.6°C 56.4°F13.6°C 68% 3.6 mph ESE5.8 kmh ESE 3.6 mph5.8 kmh 30.14 in1020.7 mb 0.00 in0.0 mm 0.00 in0.0 mm 0.02 in0.5 mm
09:46 AM 63.4°F17.4°C 56.5°F13.6°C 69% 3.2 mph ESE5.1 kmh ESE 3.2 mph5.1 kmh 30.14 in1020.7 mb 0.00 in0.0 mm 0.00 in0.0 mm 0.02 in0.5 mm
09:49 AM 63.5°F17.5°C 56.5°F13.6°C 68% 2.0 mph ESE3.2 kmh ESE 2.0 mph3.2 kmh 30.14 in1020.7 mb 0.00 in0.0 mm 0.00 in0.0 mm 0.02 in0.5 mm
09:52 AM 64.1°F17.8°C 56.2°F13.4°C 68% Calm Calm -- 30.14 in1020.7 mb 0.00 in0.0 mm 0.00 in0.0 mm 0.02 in0.5 mm
09:55 AM 63.2°F17.3°C 56.2°F13.4°C 67% 3.2 mph NE5.1 kmh NE 3.2 mph5.1 kmh 30.14 in1020.7 mb 0.00 in0.0 mm 0.00 in0.0 mm 0.02 in0.5 mm
09:58 AM 63.5°F17.5°C 56.3°F13.5°C 67% 6.7 mph NE10.8 kmh NE 6.8 mph10.9 kmh 30.14 in1020.7 mb 0.00 in0.0 mm 0.00 in0.0 mm 0.02 in0.5 mm
10:01 AM 64.1°F17.8°C 56.7°F13.7°C 68% 3.2 mph NNW5.1 kmh NNW 3.2 mph5.1 kmh 30.14 in1020.7 mb 0.00 in0.0 mm 0.00 in0.0 mm 0.02 in0.5 mm
10:07 AM 64.6°F18.1°C 56.5°F13.6°C 67% 2.4 mph NE3.9 kmh NE 2.4 mph3.9 kmh 30.14 in1020.7 mb 0.00 in0.0 mm 0.00 in0.0 mm 0.02 in0.5 mm
10:10 AM 64.9°F18.3°C 56.9°F13.8°C 67% 0.8 mph NE1.3 kmh NE 0.8 mph1.3 kmh 30.14 in1020.7 mb 0.00 in0.0 mm 0.00 in0.0 mm 0.02 in0.5 mm
10:13 AM 64.9°F18.3°C 56.9°F13.8°C 67% 2.0 mph NE3.2 kmh NE 2.0 mph3.2 kmh 30.14 in1020.7 mb 0.00 in0.0 mm 0.00 in0.0 mm 0.02 in0.5 mm
10:16 AM 64.9°F18.3°C 57.1°F13.9°C 67% 3.6 mph NE5.8 kmh NE 3.7 mph6.0 kmh 30.14 in1020.7 mb 0.00 in0.0 mm 0.00 in0.0 mm 0.02 in0.5 mm
10:19 AM 65.4°F18.6°C 56.8°F13.8°C 65% 1.5 mph NNW2.4 kmh NNW 1.6 mph2.6 kmh 30.14 in1020.7 mb 0.00 in0.0 mm 0.00 in0.0 mm 0.02 in0.5 mm
10:22 AM 65.6°F18.7°C 56.4°F13.6°C 65% 8.9 mph NNW14.3 kmh NNW 9.0 mph14.5 kmh 30.14 in1020.7 mb 0.00 in0.0 mm 0.00 in0.0 mm 0.02 in0.5 mm
10:25 AM 66.1°F18.9°C 56.5°F13.6°C 65% 3.2 mph SE5.1 kmh SE 3.2 mph5.1 kmh 30.14 in1020.7 mb 0.00 in0.0 mm 0.00 in0.0 mm 0.02 in0.5 mm
10:28 AM 66.0°F18.9°C 56.7°F13.7°C 65% 6.1 mph ESE9.8 kmh ESE 6.1 mph9.8 kmh 30.14 in1020.7 mb 0.00 in0.0 mm 0.00 in0.0 mm 0.02 in0.5 mm
10:31 AM 65.9°F18.8°C 56.4°F13.6°C 64% 8.9 mph ESE14.3 kmh ESE 9.0 mph14.5 kmh 30.14 in1020.7 mb 0.00 in0.0 mm 0.00 in0.0 mm 0.02 in0.5 mm
10:34 AM 65.9°F18.8°C 56.1°F13.4°C 64% 2.0 mph SE3.2 kmh SE 2.0 mph3.2 kmh 30.14 in1020.7 mb 0.00 in0.0 mm 0.00 in0.0 mm 0.02 in0.5 mm
10:37 AM 66.1°F18.9°C 56.6°F13.7°C 63% 6.1 mph ESE9.8 kmh ESE 6.2 mph10.0 kmh 30.14 in1020.7 mb 0.00 in0.0 mm 0.00 in0.0 mm 0.02 in0.5 mm
10:40 AM 66.0°F18.9°C 57.4°F14.1°C 64% 1.6 mph E2.6 kmh E 1.6 mph2.6 kmh 30.14 in1020.7 mb 0.00 in0.0 mm 0.00 in0.0 mm 0.02 in0.5 mm
10:43 AM 64.4°F18.0°C 56.6°F13.7°C 63% 3.6 mph ESE5.8 kmh ESE 3.6 mph5.8 kmh 30.14 in1020.7 mb 0.00 in0.0 mm 0.00 in0.0 mm 0.02 in0.5 mm
10:46 AM 64.5°F18.1°C 56.4°F13.6°C 63% 2.4 mph SE3.9 kmh SE 2.4 mph3.9 kmh 30.14 in1020.7 mb 0.00 in0.0 mm 0.00 in0.0 mm 0.02 in0.5 mm
10:49 AM 65.3°F18.5°C 57.2°F14.0°C 65% 2.0 mph E3.2 kmh E 2.0 mph3.2 kmh 30.14 in1020.7 mb 0.00 in0.0 mm 0.00 in0.0 mm 0.02 in0.5 mm
10:52 AM 65.0°F18.3°C 57.5°F14.2°C 64% 4.0 mph SE6.4 kmh SE 4.0 mph6.4 kmh 30.14 in1020.7 mb 0.00 in0.0 mm 0.00 in0.0 mm 0.02 in0.5 mm
10:55 AM 64.4°F18.0°C 56.4°F13.6°C 63% 5.3 mph SE8.5 kmh SE 5.3 mph8.5 kmh 30.14 in1020.7 mb 0.00 in0.0 mm 0.00 in0.0 mm 0.02 in0.5 mm
10:58 AM 64.6°F18.1°C 56.8°F13.8°C 63% 6.5 mph ESE10.5 kmh ESE 6.5 mph10.5 kmh 30.14 in1020.7 mb 0.00 in0.0 mm 0.00 in0.0 mm 0.02 in0.5 mm
11:01 AM 64.7°F18.2°C 56.3°F13.5°C 62% 4.4 mph ESE7.1 kmh ESE 4.5 mph7.2 kmh 30.14 in1020.7 mb 0.00 in0.0 mm 0.00 in0.0 mm 0.02 in0.5 mm
11:04 AM 64.9°F18.3°C 56.3°F13.5°C 63% 7.3 mph SE11.7 kmh SE 7.3 mph11.7 kmh 30.14 in1020.7 mb 0.00 in0.0 mm 0.00 in0.0 mm 0.02 in0.5 mm
11:07 AM 64.9°F18.3°C 55.9°F13.3°C 62% 6.9 mph ESE11.1 kmh ESE 6.9 mph11.1 kmh 30.14 in1020.7 mb 0.00 in0.0 mm 0.00 in0.0 mm 0.02 in0.5 mm
11:10 AM 65.3°F18.5°C 56.2°F13.4°C 62% 5.2 mph ESE8.4 kmh ESE 5.2 mph8.4 kmh 30.14 in1020.7 mb 0.00 in0.0 mm 0.00 in0.0 mm 0.02 in0.5 mm
11:13 AM 66.1°F18.9°C 56.5°F13.6°C 62% 5.6 mph ESE9.0 kmh ESE 5.6 mph9.0 kmh 30.14 in1020.7 mb 0.00 in0.0 mm 0.00 in0.0 mm 0.02 in0.5 mm
11:16 AM 65.9°F18.8°C 56.2°F13.4°C 62% 9.5 mph SE15.3 kmh SE 9.6 mph15.4 kmh 30.14 in1020.7 mb 0.00 in0.0 mm 0.00 in0.0 mm 0.02 in0.5 mm
11:19 AM 66.8°F19.3°C 56.4°F13.6°C 62% 8.5 mph ESE13.7 kmh ESE 8.6 mph13.8 kmh 30.14 in1020.7 mb 0.00 in0.0 mm 0.00 in0.0 mm 0.02 in0.5 mm
11:22 AM 66.9°F19.4°C 57.2°F14.0°C 63% 2.0 mph NNW3.2 kmh NNW 2.0 mph3.2 kmh 30.14 in1020.7 mb 0.00 in0.0 mm 0.00 in0.0 mm 0.02 in0.5 mm
11:25 AM 66.4°F19.1°C 56.9°F13.8°C 61% 3.5 mph E5.6 kmh E 3.5 mph5.6 kmh 30.13 in1020.3 mb 0.00 in0.0 mm 0.00 in0.0 mm 0.02 in0.5 mm
11:28 AM 66.4°F19.1°C 57.0°F13.9°C 61% 2.0 mph ENE3.2 kmh ENE 2.0 mph3.2 kmh 30.14 in1020.7 mb 0.00 in0.0 mm 0.00 in0.0 mm 0.02 in0.5 mm
11:31 AM 66.2°F19.0°C 57.3°F14.1°C 60% 2.4 mph ENE3.9 kmh ENE 2.4 mph3.9 kmh 30.14 in1020.7 mb 0.00 in0.0 mm 0.00 in0.0 mm 0.02 in0.5 mm
11:34 AM 66.9°F19.4°C 56.4°F13.6°C 58% 8.9 mph ESE14.3 kmh ESE 9.0 mph14.5 kmh 30.13 in1020.3 mb 0.00 in0.0 mm 0.00 in0.0 mm 0.02 in0.5 mm
11:37 AM 67.4°F19.7°C 56.9°F13.8°C 59% 6.5 mph ESE10.5 kmh ESE 6.5 mph10.5 kmh 30.13 in1020.3 mb 0.00 in0.0 mm 0.00 in0.0 mm 0.02 in0.5 mm
11:40 AM 67.1°F19.5°C 56.7°F13.7°C 58% 9.9 mph ESE15.9 kmh ESE 10.0 mph16.1 kmh 30.13 in1020.3 mb 0.00 in0.0 mm 0.00 in0.0 mm 0.02 in0.5 mm
11:43 AM 66.8°F19.3°C 57.0°F13.9°C 58% 6.5 mph NNW10.5 kmh NNW 6.5 mph10.5 kmh 30.13 in1020.3 mb 0.00 in0.0 mm 0.00 in0.0 mm 0.02 in0.5 mm
11:46 AM 66.4°F19.1°C 56.4°F13.6°C 58% 1.9 mph NNW3.1 kmh NNW 1.9 mph3.1 kmh 30.13 in1020.3 mb 0.00 in0.0 mm 0.00 in0.0 mm 0.02 in0.5 mm
11:49 AM 65.6°F18.7°C 56.6°F13.7°C 58% 6.0 mph NE9.7 kmh NE 6.0 mph9.7 kmh 30.13 in1020.3 mb 0.00 in0.0 mm 0.00 in0.0 mm 0.02 in0.5 mm
11:52 AM 66.2°F19.0°C 56.1°F13.4°C 57% 5.2 mph ESE8.4 kmh ESE 5.2 mph8.4 kmh 30.13 in1020.3 mb 0.00 in0.0 mm 0.00 in0.0 mm 0.02 in0.5 mm
11:55 AM 66.7°F19.3°C 56.1°F13.4°C 58% 4.4 mph E7.1 kmh E 4.4 mph7.1 kmh 30.13 in1020.3 mb 0.00 in0.0 mm 0.00 in0.0 mm 0.02 in0.5 mm
12:01 PM 67.0°F19.4°C 57.3°F14.1°C 58% 5.2 mph ENE8.4 kmh ENE 5.2 mph8.4 kmh 30.13 in1020.3 mb 0.00 in0.0 mm 0.00 in0.0 mm 0.02 in0.5 mm
12:04 PM 67.7°F19.8°C 58.0°F14.4°C 58% 3.2 mph NE5.1 kmh NE 3.2 mph5.1 kmh 30.13 in1020.3 mb 0.00 in0.0 mm 0.00 in0.0 mm 0.02 in0.5 mm
12:07 PM 67.0°F19.4°C 57.4°F14.1°C 57% 3.6 mph NE5.8 kmh NE 3.6 mph5.8 kmh 30.13 in1020.3 mb 0.00 in0.0 mm 0.00 in0.0 mm 0.02 in0.5 mm
12:10 PM 67.7°F19.8°C 58.4°F14.7°C 58% 2.8 mph NE4.5 kmh NE 2.8 mph4.5 kmh 30.13 in1020.3 mb 0.00 in0.0 mm 0.00 in0.0 mm 0.02 in0.5 mm
12:13 PM 67.2°F19.6°C 56.2°F13.4°C 54% 6.0 mph ESE9.7 kmh ESE 6.0 mph9.7 kmh 30.13 in1020.3 mb 0.00 in0.0 mm 0.00 in0.0 mm 0.02 in0.5 mm
12:16 PM 67.4°F19.7°C 57.4°F14.1°C 56% 3.1 mph ENE5.0 kmh ENE 3.1 mph5.0 kmh 30.13 in1020.3 mb 0.00 in0.0 mm 0.00 in0.0 mm 0.02 in0.5 mm
12:19 PM 67.3°F19.6°C 56.9°F13.8°C 56% 2.4 mph NE3.9 kmh NE 2.5 mph4.0 kmh 30.13 in1020.3 mb 0.00 in0.0 mm 0.00 in0.0 mm 0.02 in0.5 mm
12:22 PM 66.7°F19.3°C 56.7°F13.7°C 56% 1.2 mph ENE1.9 kmh ENE 1.2 mph1.9 kmh 30.13 in1020.3 mb 0.00 in0.0 mm 0.00 in0.0 mm 0.02 in0.5 mm
12:25 PM 66.4°F19.1°C 56.6°F13.7°C 55% 5.3 mph NNW8.5 kmh NNW 5.3 mph8.5 kmh 30.13 in1020.3 mb 0.00 in0.0 mm 0.00 in0.0 mm 0.02 in0.5 mm
12:28 PM 65.8°F18.8°C 56.8°F13.8°C 55% 3.2 mph NE5.1 kmh NE 3.3 mph5.3 kmh 30.13 in1020.3 mb 0.00 in0.0 mm 0.00 in0.0 mm 0.02 in0.5 mm
12:31 PM 67.7°F19.8°C 57.2°F14.0°C 55% 2.4 mph ENE3.9 kmh ENE 2.4 mph3.9 kmh 30.13 in1020.3 mb 0.00 in0.0 mm 0.00 in0.0 mm 0.02 in0.5 mm
12:34 PM 69.0°F20.6°C 57.3°F14.1°C 54% 2.0 mph NE3.2 kmh NE 2.0 mph3.2 kmh 30.13 in1020.3 mb 0.00 in0.0 mm 0.00 in0.0 mm 0.02 in0.5 mm
12:37 PM 66.4°F19.1°C 56.8°F13.8°C 52% 3.2 mph NNE5.1 kmh NNE 3.3 mph5.3 kmh 30.13 in1020.3 mb 0.00 in0.0 mm 0.00 in0.0 mm 0.02 in0.5 mm
12:40 PM 68.3°F20.2°C 55.5°F13.1°C 51% 4.8 mph ESE7.7 kmh ESE 4.9 mph7.9 kmh 30.13 in1020.3 mb 0.00 in0.0 mm 0.00 in0.0 mm 0.02 in0.5 mm
12:43 PM 68.1°F20.1°C 56.4°F13.6°C 52% 1.6 mph NE2.6 kmh NE 1.6 mph2.6 kmh 30.13 in1020.3 mb 0.00 in0.0 mm 0.00 in0.0 mm 0.02 in0.5 mm
12:46 PM 68.7°F20.4°C 56.6°F13.7°C 52% 4.9 mph SE7.9 kmh SE 4.9 mph7.9 kmh 30.13 in1020.3 mb 0.00 in0.0 mm 0.00 in0.0 mm 0.02 in0.5 mm
12:49 PM 68.6°F20.3°C 57.1°F13.9°C 53% 3.6 mph NNW5.8 kmh NNW 3.7 mph6.0 kmh 30.13 in1020.3 mb 0.00 in0.0 mm 0.00 in0.0 mm 0.02 in0.5 mm
12:52 PM 68.5°F20.3°C 56.1°F13.4°C 51% 2.4 mph NNW3.9 kmh NNW 2.4 mph3.9 kmh 30.13 in1020.3 mb 0.00 in0.0 mm 0.00 in0.0 mm 0.02 in0.5 mm
12:55 PM 68.7°F20.4°C 55.9°F13.3°C 51% 8.9 mph ESE14.3 kmh ESE 8.9 mph14.3 kmh 30.13 in1020.3 mb 0.00 in0.0 mm 0.00 in0.0 mm 0.02 in0.5 mm
12:58 PM 69.0°F20.6°C 56.9°F13.8°C 52% 2.8 mph SE4.5 kmh SE 2.9 mph4.7 kmh 30.12 in1020.0 mb 0.00 in0.0 mm 0.00 in0.0 mm 0.02 in0.5 mm
01:01 PM 69.1°F20.6°C 56.4°F13.6°C 51% 9.3 mph ESE15.0 kmh ESE 9.4 mph15.1 kmh 30.12 in1020.0 mb 0.00 in0.0 mm 0.00 in0.0 mm 0.02 in0.5 mm
01:04 PM 68.8°F20.4°C 56.2°F13.4°C 51% 3.6 mph SE5.8 kmh SE 3.6 mph5.8 kmh 30.12 in1020.0 mb 0.00 in0.0 mm 0.00 in0.0 mm 0.02 in0.5 mm
01:07 PM 68.6°F20.3°C 56.1°F13.4°C 51% 4.4 mph SE7.1 kmh SE 4.5 mph7.2 kmh 30.12 in1020.0 mb 0.00 in0.0 mm 0.00 in0.0 mm 0.02 in0.5 mm
01:10 PM 67.9°F19.9°C 55.2°F12.9°C 50% 3.2 mph SE5.1 kmh SE 3.3 mph5.3 kmh 30.12 in1020.0 mb 0.00 in0.0 mm 0.00 in0.0 mm 0.02 in0.5 mm
01:13 PM 68.6°F20.3°C 55.7°F13.2°C 52% 7.7 mph ESE12.4 kmh ESE 7.7 mph12.4 kmh 30.13 in1020.3 mb 0.00 in0.0 mm 0.00 in0.0 mm 0.02 in0.5 mm
01:16 PM 68.5°F20.3°C 55.6°F13.1°C 52% 3.8 mph ESE6.1 kmh ESE 3.8 mph6.1 kmh 30.12 in1020.0 mb 0.00 in0.0 mm 0.00 in0.0 mm 0.02 in0.5 mm
01:19 PM 68.2°F20.1°C 55.4°F13.0°C 51% 4.8 mph NNW7.7 kmh NNW 4.8 mph7.7 kmh 30.12 in1020.0 mb 0.00 in0.0 mm 0.00 in0.0 mm 0.02 in0.5 mm
01:22 PM 68.6°F20.3°C 55.5°F13.1°C 51% 2.4 mph SE3.9 kmh SE 2.4 mph3.9 kmh 30.12 in1020.0 mb 0.00 in0.0 mm 0.00 in0.0 mm 0.02 in0.5 mm
01:25 PM 69.6°F20.9°C 55.6°F13.1°C 51% 1.2 mph NNW1.9 kmh NNW 1.2 mph1.9 kmh 30.12 in1020.0 mb 0.00 in0.0 mm 0.00 in0.0 mm 0.02 in0.5 mm
01:28 PM 69.8°F21.0°C 55.3°F12.9°C 50% 4.8 mph NNW7.7 kmh NNW 4.8 mph7.7 kmh 30.12 in1020.0 mb 0.00 in0.0 mm 0.00 in0.0 mm 0.02 in0.5 mm
01:31 PM 70.9°F21.6°C 55.8°F13.2°C 51% 6.1 mph SE9.8 kmh SE 6.1 mph9.8 kmh 30.12 in1020.0 mb 0.00 in0.0 mm 0.00 in0.0 mm 0.02 in0.5 mm
01:34 PM 69.2°F20.7°C 56.4°F13.6°C 51% 7.7 mph ESE12.4 kmh ESE 7.7 mph12.4 kmh 30.13 in1020.3 mb 0.00 in0.0 mm 0.00 in0.0 mm 0.02 in0.5 mm
01:40 PM 68.2°F20.1°C 55.0°F12.8°C 49% 5.8 mph NNW9.3 kmh NNW 5.9 mph9.5 kmh 30.12 in1020.0 mb 0.00 in0.0 mm 0.00 in0.0 mm 0.02 in0.5 mm
01:43 PM 68.8°F20.4°C 55.0°F12.8°C 50% 1.6 mph NNW2.6 kmh NNW 1.6 mph2.6 kmh 30.13 in1020.3 mb 0.00 in0.0 mm 0.00 in0.0 mm 0.02 in0.5 mm
01:46 PM 68.1°F20.1°C 56.6°F13.7°C 52% 3.2 mph NE5.1 kmh NE 3.3 mph5.3 kmh 30.13 in1020.3 mb 0.00 in0.0 mm 0.00 in0.0 mm 0.02 in0.5 mm
01:49 PM 66.5°F19.2°C 55.9°F13.3°C 51% 3.9 mph ESE6.3 kmh ESE 3.9 mph6.3 kmh 30.13 in1020.3 mb 0.00 in0.0 mm 0.00 in0.0 mm 0.02 in0.5 mm
01:52 PM 66.7°F19.3°C 55.7°F13.2°C 52% 1.6 mph ESE2.6 kmh ESE 1.6 mph2.6 kmh 30.12 in1020.0 mb 0.00 in0.0 mm 0.00 in0.0 mm 0.02 in0.5 mm
01:55 PM 66.4°F19.1°C 55.6°F13.1°C 52% 4.1 mph ESE6.6 kmh ESE 4.1 mph6.6 kmh 30.12 in1020.0 mb 0.00 in0.0 mm 0.00 in0.0 mm 0.02 in0.5 mm
01:58 PM 66.1°F18.9°C 55.6°F13.1°C 52% 4.0 mph ESE6.4 kmh ESE 4.0 mph6.4 kmh 30.12 in1020.0 mb 0.00 in0.0 mm 0.00 in0.0 mm 0.02 in0.5 mm
02:01 PM 66.1°F18.9°C 55.1°F12.8°C 51% 3.9 mph ESE6.3 kmh ESE 3.9 mph6.3 kmh 30.12 in1020.0 mb 0.00 in0.0 mm 0.00 in0.0 mm 0.02 in0.5 mm
02:04 PM 65.8°F18.8°C 55.0°F12.8°C 52% 4.4 mph ESE7.1 kmh ESE 4.4 mph7.1 kmh 30.13 in1020.3 mb 0.00 in0.0 mm 0.00 in0.0 mm 0.02 in0.5 mm
02:07 PM 65.4°F18.6°C 55.1°F12.8°C 53% 4.4 mph NNW7.1 kmh NNW 4.4 mph7.1 kmh 30.12 in1020.0 mb 0.00 in0.0 mm 0.00 in0.0 mm 0.02 in0.5 mm
02:10 PM 66.1°F18.9°C 55.5°F13.1°C 54% Calm Calm -- 30.13 in1020.3 mb 0.00 in0.0 mm 0.00 in0.0 mm 0.02 in0.5 mm
02:13 PM 65.6°F18.7°C 55.3°F12.9°C 53% 0.8 mph SE1.3 kmh SE 0.8 mph1.3 kmh 30.13 in1020.3 mb 0.00 in0.0 mm 0.00 in0.0 mm 0.02 in0.5 mm
02:16 PM 65.5°F18.6°C 55.7°F13.2°C 54% 1.2 mph E1.9 kmh E 1.2 mph1.9 kmh 30.12 in1020.0 mb 0.00 in0.0 mm 0.00 in0.0 mm 0.02 in0.5 mm
02:19 PM 65.6°F18.7°C 56.4°F13.6°C 54% 0.8 mph NE1.3 kmh NE 0.8 mph1.3 kmh 30.12 in1020.0 mb 0.00 in0.0 mm 0.00 in0.0 mm 0.02 in0.5 mm
02:22 PM 65.3°F18.5°C 54.9°F12.7°C 52% 4.1 mph SE6.6 kmh SE 4.1 mph6.6 kmh 30.12 in1020.0 mb 0.00 in0.0 mm 0.00 in0.0 mm 0.02 in0.5 mm
02:25 PM 65.0°F18.3°C 55.1°F12.8°C 53% 5.7 mph ESE9.2 kmh ESE 5.7 mph9.2 kmh 30.12 in1020.0 mb 0.00 in0.0 mm 0.00 in0.0 mm 0.02 in0.5 mm
02:28 PM 65.4°F18.6°C 55.1°F12.8°C 53% 4.2 mph ESE6.8 kmh ESE 4.3 mph6.9 kmh 30.12 in1020.0 mb 0.00 in0.0 mm 0.00 in0.0 mm 0.02 in0.5 mm
02:31 PM 65.9°F18.8°C 55.2°F12.9°C 53% 0.8 mph ESE1.3 kmh ESE 0.8 mph1.3 kmh 30.12 in1020.0 mb 0.00 in0.0 mm 0.00 in0.0 mm 0.02 in0.5 mm
02:34 PM 65.4°F18.6°C 55.8°F13.2°C 54% 2.4 mph NE3.9 kmh NE 2.4 mph3.9 kmh 30.12 in1020.0 mb 0.00 in0.0 mm 0.00 in0.0 mm 0.02 in0.5 mm
02:37 PM 65.6°F18.7°C 54.9°F12.7°C 53% 1.6 mph SE2.6 kmh SE 1.6 mph2.6 kmh 30.12 in1020.0 mb 0.00 in0.0 mm 0.00 in0.0 mm 0.02 in0.5 mm
02:40 PM 65.9°F18.8°C 54.9°F12.7°C 53% 0.8 mph SE1.3 kmh SE 0.8 mph1.3 kmh 30.12 in1020.0 mb 0.00 in0.0 mm 0.00 in0.0 mm 0.02 in0.5 mm
02:43 PM 65.5°F18.6°C 55.0°F12.8°C 53% 3.2 mph SE5.1 kmh SE 3.2 mph5.1 kmh 30.12 in1020.0 mb 0.00 in0.0 mm 0.00 in0.0 mm 0.02 in0.5 mm
02:46 PM 65.6°F18.7°C 55.9°F13.3°C 55% 1.2 mph E1.9 kmh E 1.2 mph1.9 kmh 30.13 in1020.3 mb 0.00 in0.0 mm 0.00 in0.0 mm 0.02 in0.5 mm
02:49 PM 65.8°F18.8°C 55.5°F13.1°C 54% 0.8 mph E1.3 kmh E 0.8 mph1.3 kmh 30.13 in1020.3 mb 0.00 in0.0 mm 0.00 in0.0 mm 0.02 in0.5 mm
02:52 PM 65.4°F18.6°C 55.1°F12.8°C 53% 4.6 mph ESE7.4 kmh ESE 4.6 mph7.4 kmh 30.13 in1020.3 mb 0.00 in0.0 mm 0.00 in0.0 mm 0.02 in0.5 mm
02:55 PM 65.4°F18.6°C 55.5°F13.1°C 54% 0.4 mph E0.6 kmh E 0.4 mph0.6 kmh 30.12 in1020.0 mb 0.00 in0.0 mm 0.00 in0.0 mm 0.02 in0.5 mm
02:58 PM 64.4°F18.0°C 55.4°F13.0°C 54% 2.4 mph NNW3.9 kmh NNW 2.4 mph3.9 kmh 30.13 in1020.3 mb 0.00 in0.0 mm 0.00 in0.0 mm 0.02 in0.5 mm
03:01 PM 64.4°F18.0°C 55.6°F13.1°C 55% 1.2 mph ENE1.9 kmh ENE 1.2 mph1.9 kmh 30.13 in1020.3 mb 0.00 in0.0 mm 0.00 in0.0 mm 0.02 in0.5 mm
03:07 PM 64.2°F17.9°C 55.1°F12.8°C 55% 0.4 mph NNW0.6 kmh NNW 0.4 mph0.6 kmh 30.13 in1020.3 mb 0.00 in0.0 mm 0.00 in0.0 mm 0.02 in0.5 mm
03:10 PM 64.7°F18.2°C 55.0°F12.8°C 54% 3.4 mph NNW5.5 kmh NNW 3.4 mph5.5 kmh 30.13 in1020.3 mb 0.00 in0.0 mm 0.00 in0.0 mm 0.02 in0.5 mm
03:13 PM 64.3°F17.9°C 54.6°F12.6°C 54% 6.5 mph SE10.5 kmh SE 6.5 mph10.5 kmh 30.13 in1020.3 mb 0.00 in0.0 mm 0.00 in0.0 mm 0.02 in0.5 mm
03:16 PM 64.3°F17.9°C 54.2°F12.3°C 54% 5.6 mph ESE9.0 kmh ESE 5.6 mph9.0 kmh 30.13 in1020.3 mb 0.00 in0.0 mm 0.00 in0.0 mm 0.02 in0.5 mm
03:19 PM 64.4°F18.0°C 54.4°F12.4°C 55% 1.2 mph NNW1.9 kmh NNW 1.2 mph1.9 kmh 30.13 in1020.3 mb 0.00 in0.0 mm 0.00 in0.0 mm 0.02 in0.5 mm
03:22 PM 64.5°F18.1°C 54.3°F12.4°C 54% 4.0 mph ESE6.4 kmh ESE 4.0 mph6.4 kmh 30.13 in1020.3 mb 0.00 in0.0 mm 0.00 in0.0 mm 0.02 in0.5 mm
03:25 PM 64.6°F18.1°C 54.4°F12.4°C 54% 1.6 mph ESE2.6 kmh ESE 1.6 mph2.6 kmh 30.13 in1020.3 mb 0.00 in0.0 mm 0.00 in0.0 mm 0.02 in0.5 mm
03:28 PM 64.5°F18.1°C 53.6°F12.0°C 53% 4.0 mph ESE6.4 kmh ESE 4.1 mph6.6 kmh 30.13 in1020.3 mb 0.00 in0.0 mm 0.00 in0.0 mm 0.02 in0.5 mm
03:31 PM 64.5°F18.1°C 53.8°F12.1°C 54% 4.0 mph ESE6.4 kmh ESE 4.0 mph6.4 kmh 30.13 in1020.3 mb 0.00 in0.0 mm 0.00 in0.0 mm 0.02 in0.5 mm
03:34 PM 64.7°F18.2°C 54.4°F12.4°C 54% 3.6 mph NNW5.8 kmh NNW 3.7 mph6.0 kmh 30.13 in1020.3 mb 0.00 in0.0 mm 0.00 in0.0 mm 0.02 in0.5 mm
03:37 PM 64.7°F18.2°C 54.1°F12.3°C 54% 4.5 mph ESE7.2 kmh ESE 4.5 mph7.2 kmh 30.13 in1020.3 mb 0.00 in0.0 mm 0.00 in0.0 mm 0.02 in0.5 mm
03:40 PM 64.5°F18.1°C 53.8°F12.1°C 54% 5.2 mph ESE8.4 kmh ESE 5.2 mph8.4 kmh 30.13 in1020.3 mb 0.00 in0.0 mm 0.00 in0.0 mm 0.02 in0.5 mm
03:43 PM 64.7°F18.2°C 54.8°F12.7°C 56% 2.8 mph ESE4.5 kmh ESE 2.9 mph4.7 kmh 30.13 in1020.3 mb 0.00 in0.0 mm 0.00 in0.0 mm 0.02 in0.5 mm
03:46 PM 65.1°F18.4°C 54.6°F12.6°C 55% 2.0 mph ESE3.2 kmh ESE 2.0 mph3.2 kmh 30.13 in1020.3 mb 0.00 in0.0 mm 0.00 in0.0 mm 0.02 in0.5 mm
03:49 PM 65.1°F18.4°C 54.7°F12.6°C 55% 4.0 mph ESE6.4 kmh ESE 4.1 mph6.6 kmh 30.13 in1020.3 mb 0.00 in0.0 mm 0.00 in0.0 mm 0.02 in0.5 mm
03:52 PM 64.5°F18.1°C 53.9°F12.2°C 54% 1.6 mph NNW2.6 kmh NNW 1.6 mph2.6 kmh 30.13 in1020.3 mb 0.00 in0.0 mm 0.00 in0.0 mm 0.02 in0.5 mm
03:55 PM 64.6°F18.1°C 54.7°F12.6°C 55% Calm Calm -- 30.13 in1020.3 mb 0.00 in0.0 mm 0.00 in0.0 mm 0.02 in0.5 mm
03:58 PM 64.0°F17.8°C 54.7°F12.6°C 56% 2.4 mph ENE3.9 kmh ENE 2.4 mph3.9 kmh 30.13 in1020.3 mb 0.00 in0.0 mm 0.00 in0.0 mm 0.02 in0.5 mm
04:01 PM 64.1°F17.8°C 54.5°F12.5°C 55% Calm Calm -- 30.13 in1020.3 mb 0.00 in0.0 mm 0.00 in0.0 mm 0.02 in0.5 mm
04:04 PM 63.6°F17.6°C 54.4°F12.4°C 55% 4.4 mph SE7.1 kmh SE 4.4 mph7.1 kmh 30.13 in1020.3 mb 0.00 in0.0 mm 0.00 in0.0 mm 0.02 in0.5 mm
04:07 PM 63.3°F17.4°C 54.1°F12.3°C 55% 4.4 mph ESE7.1 kmh ESE 4.5 mph7.2 kmh 30.13 in1020.3 mb 0.00 in0.0 mm 0.00 in0.0 mm 0.02 in0.5 mm
04:10 PM 63.4°F17.4°C 54.5°F12.5°C 56% 5.7 mph SE9.2 kmh SE 5.7 mph9.2 kmh 30.13 in1020.3 mb 0.00 in0.0 mm 0.00 in0.0 mm 0.02 in0.5 mm
04:13 PM 63.2°F17.3°C 54.7°F12.6°C 57% 3.2 mph ENE5.1 kmh ENE 3.3 mph5.3 kmh 30.13 in1020.3 mb 0.00 in0.0 mm 0.00 in0.0 mm 0.02 in0.5 mm
04:16 PM 62.7°F17.1°C 54.9°F12.7°C 57% 0.8 mph E1.3 kmh E 0.8 mph1.3 kmh 30.13 in1020.3 mb 0.00 in0.0 mm 0.00 in0.0 mm 0.02 in0.5 mm
04:19 PM 62.9°F17.2°C 54.7°F12.6°C 57% 0.4 mph E0.6 kmh E 0.4 mph0.6 kmh 30.13 in1020.3 mb 0.00 in0.0 mm 0.00 in0.0 mm 0.02 in0.5 mm
04:22 PM 63.2°F17.3°C 54.7°F12.6°C 57% Calm Calm -- 30.13 in1020.3 mb 0.00 in0.0 mm 0.00 in0.0 mm 0.02 in0.5 mm
04:25 PM 62.8°F17.1°C 54.1°F12.3°C 56% 2.0 mph ESE3.2 kmh ESE 2.0 mph3.2 kmh 30.13 in1020.3 mb 0.00 in0.0 mm 0.00 in0.0 mm 0.02 in0.5 mm
04:28 PM 63.1°F17.3°C 54.2°F12.3°C 56% 1.6 mph ESE2.6 kmh ESE 1.6 mph2.6 kmh 30.13 in1020.3 mb 0.00 in0.0 mm 0.00 in0.0 mm 0.02 in0.5 mm
04:31 PM 63.3°F17.4°C 54.5°F12.5°C 56% Calm Calm -- 30.13 in1020.3 mb 0.00 in0.0 mm 0.00 in0.0 mm 0.02 in0.5 mm
04:34 PM 62.8°F17.1°C 54.7°F12.6°C 56% 0.8 mph ESE1.3 kmh ESE 0.8 mph1.3 kmh 30.13 in1020.3 mb 0.00 in0.0 mm 0.00 in0.0 mm 0.02 in0.5 mm
04:37 PM 62.9°F17.2°C 54.3°F12.4°C 56% 0.8 mph NNW1.3 kmh NNW 0.8 mph1.3 kmh 30.13 in1020.3 mb 0.00 in0.0 mm 0.00 in0.0 mm 0.02 in0.5 mm
04:40 PM 63.1°F17.3°C 54.5°F12.5°C 56% 1.6 mph SE2.6 kmh SE 1.6 mph2.6 kmh 30.13 in1020.3 mb 0.00 in0.0 mm 0.00 in0.0 mm 0.02 in0.5 mm
04:43 PM 62.6°F17.0°C 54.1°F12.3°C 56% 3.2 mph ESE5.1 kmh ESE 3.3 mph5.3 kmh 30.13 in1020.3 mb 0.00 in0.0 mm 0.00 in0.0 mm 0.02 in0.5 mm
04:46 PM 62.8°F17.1°C 54.6°F12.6°C 57% Calm Calm -- 30.13 in1020.3 mb 0.00 in0.0 mm 0.00 in0.0 mm 0.02 in0.5 mm
04:49 PM 62.9°F17.2°C 54.6°F12.6°C 57% Calm Calm -- 30.13 in1020.3 mb 0.00 in0.0 mm 0.00 in0.0 mm 0.02 in0.5 mm
04:52 PM 62.7°F17.1°C 54.0°F12.2°C 56% 3.2 mph ESE5.1 kmh ESE 3.2 mph5.1 kmh 30.13 in1020.3 mb 0.00 in0.0 mm 0.00 in0.0 mm 0.02 in0.5 mm
04:55 PM 62.8°F17.1°C 53.7°F12.1°C 56% 2.8 mph NNW4.5 kmh NNW 2.8 mph4.5 kmh 30.12 in1020.0 mb 0.00 in0.0 mm 0.00 in0.0 mm 0.02 in0.5 mm
04:58 PM 62.7°F17.1°C 54.4°F12.4°C 57% 4.0 mph NNW6.4 kmh NNW 4.1 mph6.6 kmh 30.13 in1020.3 mb 0.00 in0.0 mm 0.00 in0.0 mm 0.02 in0.5 mm
05:01 PM 62.6°F17.0°C 54.3°F12.4°C 57% 2.8 mph SE4.5 kmh SE 2.9 mph4.7 kmh 30.13 in1020.3 mb 0.00 in0.0 mm 0.00 in0.0 mm 0.02 in0.5 mm
05:04 PM 62.5°F16.9°C 53.8°F12.1°C 57% 3.2 mph ESE5.1 kmh ESE 3.3 mph5.3 kmh 30.13 in1020.3 mb 0.00 in0.0 mm 0.00 in0.0 mm 0.02 in0.5 mm
05:10 PM 62.4°F16.9°C 54.1°F12.3°C 57% Calm Calm -- 30.13 in1020.3 mb 0.00 in0.0 mm 0.00 in0.0 mm 0.02 in0.5 mm
05:13 PM 62.4°F16.9°C 54.4°F12.4°C 58% 1.2 mph NE1.9 kmh NE 1.2 mph1.9 kmh 30.13 in1020.3 mb 0.00 in0.0 mm 0.00 in0.0 mm 0.02 in0.5 mm
05:16 PM 62.3°F16.8°C 53.6°F12.0°C 56% 4.4 mph NE7.1 kmh NE 4.4 mph7.1 kmh 30.13 in1020.3 mb 0.00 in0.0 mm 0.00 in0.0 mm 0.02 in0.5 mm
05:19 PM 62.2°F16.8°C 54.1°F12.3°C 57% Calm Calm -- 30.13 in1020.3 mb 0.00 in0.0 mm 0.00 in0.0 mm 0.02 in0.5 mm
05:22 PM 62.2°F16.8°C 54.1°F12.3°C 57% 1.6 mph ESE2.6 kmh ESE 1.6 mph2.6 kmh 30.13 in1020.3 mb 0.00 in0.0 mm 0.00 in0.0 mm 0.02 in0.5 mm
05:25 PM 61.8°F16.6°C 54.0°F12.2°C 57% 1.6 mph SE2.6 kmh SE 1.6 mph2.6 kmh 30.13 in1020.3 mb 0.00 in0.0 mm 0.00 in0.0 mm 0.02 in0.5 mm
05:28 PM 62.0°F16.7°C 54.0°F12.2°C 58% Calm Calm -- 30.13 in1020.3 mb 0.00 in0.0 mm 0.00 in0.0 mm 0.02 in0.5 mm
05:31 PM 62.0°F16.7°C 53.9°F12.2°C 57% Calm Calm -- 30.13 in1020.3 mb 0.00 in0.0 mm 0.00 in0.0 mm 0.02 in0.5 mm
05:34 PM 61.9°F16.6°C 53.7°F12.1°C 57% 0.4 mph ENE0.6 kmh ENE 0.4 mph0.6 kmh 30.13 in1020.3 mb 0.00 in0.0 mm 0.00 in0.0 mm 0.02 in0.5 mm
05:37 PM 61.9°F16.6°C 53.6°F12.0°C 57% 3.6 mph SE5.8 kmh SE 3.7 mph6.0 kmh 30.13 in1020.3 mb 0.00 in0.0 mm 0.00 in0.0 mm 0.02 in0.5 mm
05:40 PM 62.0°F16.7°C 52.8°F11.6°C 56% 5.2 mph NNW8.4 kmh NNW 5.2 mph8.4 kmh 30.13 in1020.3 mb 0.00 in0.0 mm 0.00 in0.0 mm 0.02 in0.5 mm
05:43 PM 61.7°F16.5°C 52.9°F11.6°C 56% 2.8 mph SE4.5 kmh SE 2.8 mph4.5 kmh 30.13 in1020.3 mb 0.00 in0.0 mm 0.00 in0.0 mm 0.02 in0.5 mm
05:46 PM 61.9°F16.6°C 53.2°F11.8°C 57% 1.6 mph NE2.6 kmh NE 1.6 mph2.6 kmh 30.13 in1020.3 mb 0.00 in0.0 mm 0.00 in0.0 mm 0.02 in0.5 mm
05:49 PM 61.9°F16.6°C 53.5°F11.9°C 57% Calm Calm -- 30.13 in1020.3 mb 0.00 in0.0 mm 0.00 in0.0 mm 0.02 in0.5 mm
05:52 PM 61.8°F16.6°C 53.7°F12.1°C 57% Calm Calm -- 30.13 in1020.3 mb 0.00 in0.0 mm 0.00 in0.0 mm 0.02 in0.5 mm
05:55 PM 61.7°F16.5°C 53.6°F12.0°C 57% 1.6 mph NE2.6 kmh NE 1.6 mph2.6 kmh 30.13 in1020.3 mb 0.00 in0.0 mm 0.00 in0.0 mm 0.02 in0.5 mm
05:58 PM 61.7°F16.5°C 53.7°F12.1°C 57% Calm Calm -- 30.13 in1020.3 mb 0.00 in0.0 mm 0.00 in0.0 mm 0.02 in0.5 mm
06:01 PM 61.7°F16.5°C 54.2°F12.3°C 58% 2.0 mph NNW3.2 kmh NNW 2.0 mph3.2 kmh 30.13 in1020.3 mb 0.00 in0.0 mm 0.00 in0.0 mm 0.02 in0.5 mm
06:04 PM 61.7°F16.5°C 53.4°F11.9°C 57% 0.8 mph ESE1.3 kmh ESE 0.8 mph1.3 kmh 30.13 in1020.3 mb 0.00 in0.0 mm 0.00 in0.0 mm 0.02 in0.5 mm
06:07 PM 61.7°F16.5°C 53.4°F11.9°C 57% 0.8 mph ESE1.3 kmh ESE 0.8 mph1.3 kmh 30.13 in1020.3 mb 0.00 in0.0 mm 0.00 in0.0 mm 0.02 in0.5 mm
06:10 PM 61.4°F16.3°C 54.0°F12.2°C 58% 0.4 mph ESE0.6 kmh ESE 0.4 mph0.6 kmh 30.13 in1020.3 mb 0.00 in0.0 mm 0.00 in0.0 mm 0.02 in0.5 mm
06:13 PM 61.5°F16.4°C 53.5°F11.9°C 58% 1.6 mph ESE2.6 kmh ESE 1.6 mph2.6 kmh 30.13 in1020.3 mb 0.00 in0.0 mm 0.00 in0.0 mm 0.02 in0.5 mm
06:16 PM 61.4°F16.3°C 53.1°F11.7°C 57% Calm Calm -- 30.13 in1020.3 mb 0.00 in0.0 mm 0.00 in0.0 mm 0.02 in0.5 mm
06:19 PM 61.3°F16.3°C 53.1°F11.7°C 57% 3.6 mph ESE5.8 kmh ESE 3.6 mph5.8 kmh 30.13 in1020.3 mb 0.00 in0.0 mm 0.00 in0.0 mm 0.02 in0.5 mm
06:22 PM 61.0°F16.1°C 53.3°F11.8°C 57% Calm Calm -- 30.13 in1020.3 mb 0.00 in0.0 mm 0.00 in0.0 mm 0.02 in0.5 mm
06:25 PM 61.0°F16.1°C 52.7°F11.5°C 57% 0.4 mph ESE0.6 kmh ESE 0.4 mph0.6 kmh 30.13 in1020.3 mb 0.00 in0.0 mm 0.00 in0.0 mm 0.02 in0.5 mm
06:31 PM 60.8°F16.0°C 52.7°F11.5°C 57% 2.8 mph SE4.5 kmh SE 2.9 mph4.7 kmh 30.14 in1020.7 mb 0.00 in0.0 mm 0.00 in0.0 mm 0.02 in0.5 mm
06:34 PM 60.7°F15.9°C 53.0°F11.7°C 58% 2.4 mph NNW3.9 kmh NNW 2.4 mph3.9 kmh 30.14 in1020.7 mb 0.00 in0.0 mm 0.00 in0.0 mm 0.02 in0.5 mm
06:37 PM 60.7°F15.9°C 53.0°F11.7°C 57% 3.6 mph NNW5.8 kmh NNW 3.6 mph5.8 kmh 30.13 in1020.3 mb 0.00 in0.0 mm 0.00 in0.0 mm 0.02 in0.5 mm
06:40 PM 60.7°F15.9°C 53.1°F11.7°C 58% 2.4 mph ESE3.9 kmh ESE 2.4 mph3.9 kmh 30.14 in1020.7 mb 0.00 in0.0 mm 0.00 in0.0 mm 0.02 in0.5 mm
06:43 PM 60.5°F15.8°C 53.1°F11.7°C 58% 1.9 mph ENE3.1 kmh ENE 1.9 mph3.1 kmh 30.14 in1020.7 mb 0.00 in0.0 mm 0.00 in0.0 mm 0.02 in0.5 mm
06:46 PM 60.6°F15.9°C 52.8°F11.6°C 58% Calm Calm -- 30.14 in1020.7 mb 0.00 in0.0 mm 0.00 in0.0 mm 0.02 in0.5 mm
06:49 PM 60.5°F15.8°C 52.7°F11.5°C 57% 2.8 mph ESE4.5 kmh ESE 2.8 mph4.5 kmh 30.14 in1020.7 mb 0.00 in0.0 mm 0.00 in0.0 mm 0.02 in0.5 mm
06:52 PM 60.5°F15.8°C 52.8°F11.6°C 58% 2.3 mph ESE3.7 kmh ESE 2.3 mph3.7 kmh 30.14 in1020.7 mb 0.00 in0.0 mm 0.00 in0.0 mm 0.02 in0.5 mm
06:55 PM 60.1°F15.6°C 52.7°F11.5°C 58% Calm Calm -- 30.14 in1020.7 mb 0.00 in0.0 mm 0.00 in0.0 mm 0.02 in0.5 mm
06:58 PM 60.1°F15.6°C 53.5°F11.9°C 59% 0.4 mph NNW0.6 kmh NNW 0.4 mph0.6 kmh 30.14 in1020.7 mb 0.00 in0.0 mm 0.00 in0.0 mm 0.02 in0.5 mm
07:01 PM 59.9°F15.5°C 52.8°F11.6°C 58% 0.4 mph E0.6 kmh E 0.4 mph0.6 kmh 30.14 in1020.7 mb 0.00 in0.0 mm 0.00 in0.0 mm 0.02 in0.5 mm
07:04 PM 60.0°F15.6°C 52.8°F11.6°C 58% 0.8 mph ESE1.3 kmh ESE 0.8 mph1.3 kmh 30.14 in1020.7 mb 0.00 in0.0 mm 0.00 in0.0 mm 0.02 in0.5 mm
07:07 PM 59.9°F15.5°C 52.6°F11.4°C 58% Calm Calm -- 30.14 in1020.7 mb 0.00 in0.0 mm 0.00 in0.0 mm 0.02 in0.5 mm
07:10 PM 60.0°F15.6°C 52.7°F11.5°C 59% 0.8 mph ESE1.3 kmh ESE 0.8 mph1.3 kmh 30.15 in1021.0 mb 0.00 in0.0 mm 0.00 in0.0 mm 0.02 in0.5 mm
07:13 PM 60.0°F15.6°C 52.5°F11.4°C 58% 1.2 mph ESE1.9 kmh ESE 1.2 mph1.9 kmh 30.15 in1021.0 mb 0.00 in0.0 mm 0.00 in0.0 mm 0.02 in0.5 mm
07:16 PM 60.0°F15.6°C 52.6°F11.4°C 58% Calm Calm -- 30.15 in1021.0 mb 0.00 in0.0 mm 0.00 in0.0 mm 0.02 in0.5 mm
07:19 PM 59.8°F15.4°C 53.0°F11.7°C 59% Calm Calm -- 30.15 in1021.0 mb 0.00 in0.0 mm 0.00 in0.0 mm 0.02 in0.5 mm
07:22 PM 59.8°F15.4°C 52.6°F11.4°C 59% 1.6 mph NNW2.6 kmh NNW 1.6 mph2.6 kmh 30.15 in1021.0 mb 0.00 in0.0 mm 0.00 in0.0 mm 0.02 in0.5 mm
07:28 PM 59.8°F15.4°C 52.5°F11.4°C 59% 0.8 mph E1.3 kmh E 0.8 mph1.3 kmh 30.15 in1021.0 mb 0.00 in0.0 mm 0.00 in0.0 mm 0.02 in0.5 mm
07:31 PM 59.3°F15.2°C 52.8°F11.6°C 59% Calm Calm -- 30.16 in1021.3 mb 0.00 in0.0 mm 0.00 in0.0 mm 0.02 in0.5 mm
07:34 PM 59.6°F15.3°C 52.5°F11.4°C 59% 1.2 mph E1.9 kmh E 1.2 mph1.9 kmh 30.16 in1021.3 mb 0.00 in0.0 mm 0.00 in0.0 mm 0.02 in0.5 mm
07:37 PM 59.7°F15.4°C 52.9°F11.6°C 59% Calm Calm -- 30.16 in1021.3 mb 0.00 in0.0 mm 0.00 in0.0 mm 0.02 in0.5 mm
07:40 PM 59.5°F15.3°C 52.8°F11.6°C 60% 0.4 mph E0.6 kmh E 0.4 mph0.6 kmh 30.16 in1021.3 mb 0.00 in0.0 mm 0.00 in0.0 mm 0.02 in0.5 mm
07:43 PM 59.7°F15.4°C 52.5°F11.4°C 59% 0.4 mph ESE0.6 kmh ESE 0.4 mph0.6 kmh 30.16 in1021.3 mb 0.00 in0.0 mm 0.00 in0.0 mm 0.02 in0.5 mm
07:46 PM 59.5°F15.3°C 52.8°F11.6°C 60% Calm Calm -- 30.16 in1021.3 mb 0.00 in0.0 mm 0.00 in0.0 mm 0.02 in0.5 mm
07:49 PM 59.3°F15.2°C 53.1°F11.7°C 60% Calm Calm -- 30.16 in1021.3 mb 0.00 in0.0 mm 0.00 in0.0 mm 0.02 in0.5 mm
07:52 PM 59.1°F15.1°C 53.1°F11.7°C 60% Calm Calm -- 30.16 in1021.3 mb 0.00 in0.0 mm 0.00 in0.0 mm 0.02 in0.5 mm
07:55 PM 59.0°F15.0°C 53.3°F11.8°C 61% Calm Calm -- 30.16 in1021.3 mb 0.00 in0.0 mm 0.00 in0.0 mm 0.02 in0.5 mm
07:58 PM 59.1°F15.1°C 53.1°F11.7°C 60% Calm Calm -- 30.16 in1021.3 mb 0.00 in0.0 mm 0.00 in0.0 mm 0.02 in0.5 mm
08:01 PM 58.6°F14.8°C 53.2°F11.8°C 60% Calm Calm -- 30.16 in1021.3 mb 0.00 in0.0 mm 0.00 in0.0 mm 0.02 in0.5 mm
08:04 PM 58.9°F14.9°C 53.0°F11.7°C 61% Calm Calm -- 30.16 in1021.3 mb 0.00 in0.0 mm 0.00 in0.0 mm 0.02 in0.5 mm
08:07 PM 58.4°F14.7°C 53.3°F11.8°C 61% Calm Calm -- 30.16 in1021.3 mb 0.00 in0.0 mm 0.00 in0.0 mm 0.02 in0.5 mm
08:10 PM 58.7°F14.8°C 53.2°F11.8°C 61% Calm Calm -- 30.16 in1021.3 mb 0.00 in0.0 mm 0.00 in0.0 mm 0.02 in0.5 mm
08:13 PM 58.4°F14.7°C 53.4°F11.9°C 62% Calm Calm -- 30.16 in1021.3 mb 0.00 in0.0 mm 0.00 in0.0 mm 0.02 in0.5 mm
08:16 PM 58.4°F14.7°C 53.1°F11.7°C 61% Calm Calm -- 30.16 in1021.3 mb 0.00 in0.0 mm 0.00 in0.0 mm 0.02 in0.5 mm
08:19 PM 58.4°F14.7°C 52.9°F11.6°C 61% Calm Calm -- 30.16 in1021.3 mb 0.00 in0.0 mm 0.00 in0.0 mm 0.02 in0.5 mm
08:22 PM 58.3°F14.6°C 53.1°F11.7°C 61% Calm Calm -- 30.16 in1021.3 mb 0.00 in0.0 mm 0.00 in0.0 mm 0.02 in0.5 mm
08:25 PM 58.2°F14.6°C 53.1°F11.7°C 62% Calm Calm -- 30.16 in1021.3 mb 0.00 in0.0 mm 0.00 in0.0 mm 0.02 in0.5 mm
08:28 PM 58.1°F14.5°C 53.2°F11.8°C 62% Calm Calm -- 30.16 in1021.3 mb 0.00 in0.0 mm 0.00 in0.0 mm 0.02 in0.5 mm
08:31 PM 58.0°F14.4°C 53.3°F11.8°C 62% Calm Calm -- 30.16 in1021.3 mb 0.00 in0.0 mm 0.00 in0.0 mm 0.02 in0.5 mm
08:34 PM 57.9°F14.4°C 53.6°F12.0°C 63% Calm Calm -- 30.16 in1021.3 mb 0.00 in0.0 mm 0.00 in0.0 mm 0.02 in0.5 mm
08:37 PM 57.9°F14.4°C 53.2°F11.8°C 63% Calm Calm -- 30.16 in1021.3 mb 0.00 in0.0 mm 0.00 in0.0 mm 0.02 in0.5 mm
08:40 PM 57.7°F14.3°C 53.5°F11.9°C 63% Calm Calm -- 30.16 in1021.3 mb 0.00 in0.0 mm 0.00 in0.0 mm 0.02 in0.5 mm
08:43 PM 57.7°F14.3°C 53.4°F11.9°C 63% Calm Calm -- 30.16 in1021.3 mb 0.00 in0.0 mm 0.00 in0.0 mm 0.02 in0.5 mm
08:46 PM 57.4°F14.1°C 53.5°F11.9°C 63% 0.8 mph E1.3 kmh E 0.8 mph1.3 kmh 30.17 in1021.7 mb 0.00 in0.0 mm 0.00 in0.0 mm 0.02 in0.5 mm
08:49 PM 57.1°F13.9°C 53.7°F12.1°C 64% Calm Calm -- 30.16 in1021.3 mb 0.00 in0.0 mm 0.00 in0.0 mm 0.02 in0.5 mm
08:52 PM 57.2°F14.0°C 53.6°F12.0°C 64% Calm Calm -- 30.17 in1021.7 mb 0.00 in0.0 mm 0.00 in0.0 mm 0.02 in0.5 mm
08:55 PM 57.2°F14.0°C 53.8°F12.1°C 65% Calm Calm -- 30.16 in1021.3 mb 0.00 in0.0 mm 0.00 in0.0 mm 0.02 in0.5 mm
08:58 PM 57.0°F13.9°C 54.0°F12.2°C 65% Calm Calm -- 30.17 in1021.7 mb 0.00 in0.0 mm 0.00 in0.0 mm 0.02 in0.5 mm
09:01 PM 57.0°F13.9°C 54.0°F12.2°C 66% Calm Calm -- 30.17 in1021.7 mb 0.00 in0.0 mm 0.00 in0.0 mm 0.02 in0.5 mm
09:07 PM 56.4°F13.6°C 54.1°F12.3°C 66% Calm Calm -- 30.17 in1021.7 mb 0.00 in0.0 mm 0.00 in0.0 mm 0.02 in0.5 mm
09:10 PM 56.5°F13.6°C 53.7°F12.1°C 66% Calm Calm -- 30.17 in1021.7 mb 0.00 in0.0 mm 0.00 in0.0 mm 0.02 in0.5 mm
09:13 PM 56.5°F13.6°C 54.2°F12.3°C 66% Calm Calm -- 30.17 in1021.7 mb 0.00 in0.0 mm 0.00 in0.0 mm 0.02 in0.5 mm
09:16 PM 56.4°F13.6°C 53.8°F12.1°C 66% Calm Calm -- 30.17 in1021.7 mb 0.00 in0.0 mm 0.00 in0.0 mm 0.02 in0.5 mm
09:19 PM 56.5°F13.6°C 53.8°F12.1°C 66% Calm Calm -- 30.17 in1021.7 mb 0.00 in0.0 mm 0.00 in0.0 mm 0.02 in0.5 mm
09:22 PM 56.3°F13.5°C 53.9°F12.2°C 67% Calm Calm -- 30.17 in1021.7 mb 0.00 in0.0 mm 0.00 in0.0 mm 0.02 in0.5 mm
09:25 PM 56.3°F13.5°C 54.0°F12.2°C 67% Calm Calm -- 30.17 in1021.7 mb 0.00 in0.0 mm 0.00 in0.0 mm 0.02 in0.5 mm
09:28 PM 56.2°F13.4°C 54.2°F12.3°C 67% Calm Calm -- 30.17 in1021.7 mb 0.00 in0.0 mm 0.00 in0.0 mm 0.02 in0.5 mm
09:31 PM 57.0°F13.9°C 53.4°F11.9°C 66% 1.2 mph NNW1.9 kmh NNW 1.2 mph1.9 kmh 30.17 in1021.7 mb 0.00 in0.0 mm 0.00 in0.0 mm 0.02 in0.5 mm
09:34 PM 57.0°F13.9°C 53.6°F12.0°C 66% Calm Calm -- 30.17 in1021.7 mb 0.00 in0.0 mm 0.00 in0.0 mm 0.02 in0.5 mm
09:37 PM 56.6°F13.7°C 53.4°F11.9°C 66% Calm Calm -- 30.17 in1021.7 mb 0.00 in0.0 mm 0.00 in0.0 mm 0.02 in0.5 mm
09:40 PM 56.6°F13.7°C 53.7°F12.1°C 67% Calm Calm -- 30.17 in1021.7 mb 0.00 in0.0 mm 0.00 in0.0 mm 0.02 in0.5 mm
09:43 PM 56.6°F13.7°C 53.3°F11.8°C 66% Calm Calm -- 30.17 in1021.7 mb 0.00 in0.0 mm 0.00 in0.0 mm 0.02 in0.5 mm
09:46 PM 56.5°F13.6°C 53.4°F11.9°C 66% Calm Calm -- 30.17 in1021.7 mb 0.00 in0.0 mm 0.00 in0.0 mm 0.02 in0.5 mm
09:49 PM 56.5°F13.6°C 53.3°F11.8°C 66% Calm Calm -- 30.17 in1021.7 mb 0.00 in0.0 mm 0.00 in0.0 mm 0.02 in0.5 mm
09:52 PM 56.4°F13.6°C 53.3°F11.8°C 66% 0.4 mph NE0.6 kmh NE 0.4 mph0.6 kmh 30.17 in1021.7 mb 0.00 in0.0 mm 0.00 in0.0 mm 0.02 in0.5 mm
09:55 PM 56.5°F13.6°C 53.1°F11.7°C 66% Calm Calm -- 30.18 in1022.0 mb 0.00 in0.0 mm 0.00 in0.0 mm 0.02 in0.5 mm
09:58 PM 56.8°F13.8°C 53.0°F11.7°C 66% 0.4 mph E0.6 kmh E 0.4 mph0.6 kmh 30.18 in1022.0 mb 0.00 in0.0 mm 0.00 in0.0 mm 0.02 in0.5 mm
10:01 PM 56.4°F13.6°C 52.8°F11.6°C 65% Calm Calm -- 30.18 in1022.0 mb 0.00 in0.0 mm 0.00 in0.0 mm 0.02 in0.5 mm
10:04 PM 56.6°F13.7°C 52.8°F11.6°C 65% Calm Calm -- 30.18 in1022.0 mb 0.00 in0.0 mm 0.00 in0.0 mm 0.02 in0.5 mm
10:07 PM 56.3°F13.5°C 52.7°F11.5°C 65% Calm Calm -- 30.18 in1022.0 mb 0.00 in0.0 mm 0.00 in0.0 mm 0.02 in0.5 mm
10:10 PM 56.2°F13.4°C 52.7°F11.5°C 65% Calm Calm -- 30.19 in1022.4 mb 0.00 in0.0 mm 0.00 in0.0 mm 0.02 in0.5 mm
10:13 PM 56.2°F13.4°C 52.8°F11.6°C 66% Calm Calm -- 30.19 in1022.4 mb 0.00 in0.0 mm 0.00 in0.0 mm 0.02 in0.5 mm
10:16 PM 56.2°F13.4°C 52.9°F11.6°C 66% Calm Calm -- 30.19 in1022.4 mb 0.00 in0.0 mm 0.00 in0.0 mm 0.02 in0.5 mm
10:19 PM 56.1°F13.4°C 52.9°F11.6°C 66% Calm Calm -- 30.19 in1022.4 mb 0.00 in0.0 mm 0.00 in0.0 mm 0.02 in0.5 mm
10:22 PM 56.0°F13.3°C 53.0°F11.7°C 66% Calm Calm -- 30.19 in1022.4 mb 0.00 in0.0 mm 0.00 in0.0 mm 0.02 in0.5 mm
10:25 PM 56.2°F13.4°C 53.1°F11.7°C 66% 1.6 mph ENE2.6 kmh ENE 1.6 mph2.6 kmh 30.19 in1022.4 mb 0.00 in0.0 mm 0.00 in0.0 mm 0.02 in0.5 mm
10:28 PM 56.0°F13.3°C 53.0°F11.7°C 66% 0.8 mph NE1.3 kmh NE 0.8 mph1.3 kmh 30.19 in1022.4 mb 0.00 in0.0 mm 0.00 in0.0 mm 0.02 in0.5 mm
10:31 PM 56.2°F13.4°C 52.9°F11.6°C 66% 0.4 mph NE0.6 kmh NE 0.4 mph0.6 kmh 30.19 in1022.4 mb 0.00 in0.0 mm 0.00 in0.0 mm 0.02 in0.5 mm
10:34 PM 56.4°F13.6°C 52.7°F11.5°C 66% 0.4 mph NE0.6 kmh NE 0.4 mph0.6 kmh 30.19 in1022.4 mb 0.00 in0.0 mm 0.00 in0.0 mm 0.02 in0.5 mm
10:37 PM 56.3°F13.5°C 52.8°F11.6°C 66% 0.4 mph NNW0.6 kmh NNW 0.4 mph0.6 kmh 30.19 in1022.4 mb 0.00 in0.0 mm 0.00 in0.0 mm 0.02 in0.5 mm
10:40 PM 56.5°F13.6°C 52.6°F11.4°C 66% 2.4 mph NNW3.9 kmh NNW 2.4 mph3.9 kmh 30.19 in1022.4 mb 0.00 in0.0 mm 0.00 in0.0 mm 0.02 in0.5 mm
10:43 PM 56.3°F13.5°C 52.7°F11.5°C 67% 1.6 mph NE2.6 kmh NE 1.6 mph2.6 kmh 30.19 in1022.4 mb 0.00 in0.0 mm 0.00 in0.0 mm 0.02 in0.5 mm
10:46 PM 56.6°F13.7°C 52.5°F11.4°C 66% 3.6 mph NE5.8 kmh NE 3.6 mph5.8 kmh 30.19 in1022.4 mb 0.00 in0.0 mm 0.00 in0.0 mm 0.02 in0.5 mm
10:52 PM 56.6°F13.7°C 52.5°F11.4°C 66% Calm Calm -- 30.19 in1022.4 mb 0.00 in0.0 mm 0.00 in0.0 mm 0.02 in0.5 mm
10:55 PM 56.3°F13.5°C 52.9°F11.6°C 67% Calm Calm -- 30.19 in1022.4 mb 0.00 in0.0 mm 0.00 in0.0 mm 0.02 in0.5 mm
10:58 PM 56.2°F13.4°C 52.4°F11.3°C 66% Calm Calm -- 30.19 in1022.4 mb 0.00 in0.0 mm 0.00 in0.0 mm 0.02 in0.5 mm
11:01 PM 56.8°F13.8°C 52.5°F11.4°C 66% 1.6 mph NE2.6 kmh NE 1.6 mph2.6 kmh 30.19 in1022.4 mb 0.00 in0.0 mm 0.00 in0.0 mm 0.00 in0.0 mm
11:04 PM 56.5°F13.6°C 52.2°F11.2°C 66% 0.8 mph NE1.3 kmh NE 0.8 mph1.3 kmh 30.18 in1022.0 mb 0.00 in0.0 mm 0.00 in0.0 mm 0.00 in0.0 mm
11:07 PM 56.6°F13.7°C 52.2°F11.2°C 66% 3.9 mph NE6.3 kmh NE 4.0 mph6.4 kmh 30.19 in1022.4 mb 0.00 in0.0 mm 0.00 in0.0 mm 0.00 in0.0 mm
11:10 PM 56.8°F13.8°C 52.4°F11.3°C 66% 3.2 mph NNW5.1 kmh NNW 3.3 mph5.3 kmh 30.18 in1022.0 mb 0.00 in0.0 mm 0.00 in0.0 mm 0.00 in0.0 mm
11:13 PM 56.8°F13.8°C 52.2°F11.2°C 66% 2.0 mph NE3.2 kmh NE 2.0 mph3.2 kmh 30.18 in1022.0 mb 0.00 in0.0 mm 0.00 in0.0 mm 0.00 in0.0 mm
11:16 PM 56.6°F13.7°C 52.2°F11.2°C 66% 0.8 mph ENE1.3 kmh ENE 0.8 mph1.3 kmh 30.18 in1022.0 mb 0.00 in0.0 mm 0.00 in0.0 mm 0.00 in0.0 mm
11:19 PM 56.9°F13.8°C 52.3°F11.3°C 66% Calm Calm -- 30.18 in1022.0 mb 0.00 in0.0 mm 0.00 in0.0 mm 0.00 in0.0 mm
11:22 PM 56.9°F13.8°C 52.1°F11.2°C 66% 5.7 mph NE9.2 kmh NE 5.7 mph9.2 kmh 30.17 in1021.7 mb 0.00 in0.0 mm 0.00 in0.0 mm 0.00 in0.0 mm
11:25 PM 56.8°F13.8°C 52.2°F11.2°C 66% 0.4 mph ENE0.6 kmh ENE 0.4 mph0.6 kmh 30.18 in1022.0 mb 0.00 in0.0 mm 0.00 in0.0 mm 0.00 in0.0 mm
11:28 PM 56.6°F13.7°C 52.2°F11.2°C 66% Calm Calm -- 30.18 in1022.0 mb 0.00 in0.0 mm 0.00 in0.0 mm 0.00 in0.0 mm
11:31 PM 56.4°F13.6°C 52.0°F11.1°C 66% Calm Calm -- 30.18 in1022.0 mb 0.00 in0.0 mm 0.00 in0.0 mm 0.00 in0.0 mm
11:34 PM 56.4°F13.6°C 52.3°F11.3°C 66% 0.4 mph NNW0.6 kmh NNW 0.4 mph0.6 kmh 30.18 in1022.0 mb 0.00 in0.0 mm 0.00 in0.0 mm 0.00 in0.0 mm
11:37 PM 56.8°F13.8°C 52.4°F11.3°C 66% 0.8 mph NE1.3 kmh NE 0.8 mph1.3 kmh 30.18 in1022.0 mb 0.00 in0.0 mm 0.00 in0.0 mm 0.00 in0.0 mm
11:40 PM 56.4°F13.6°C 52.2°F11.2°C 66% Calm Calm -- 30.17 in1021.7 mb 0.00 in0.0 mm 0.00 in0.0 mm 0.00 in0.0 mm
11:46 PM 56.3°F13.5°C 52.3°F11.3°C 66% Calm Calm -- 30.19 in1022.4 mb 0.00 in0.0 mm 0.00 in0.0 mm 0.00 in0.0 mm
11:49 PM 56.2°F13.4°C 52.3°F11.3°C 66% Calm Calm -- 30.19 in1022.4 mb 0.00 in0.0 mm 0.00 in0.0 mm 0.00 in0.0 mm
11:52 PM 56.9°F13.8°C 52.3°F11.3°C 66% 1.2 mph NE1.9 kmh NE 1.2 mph1.9 kmh 30.19 in1022.4 mb 0.00 in0.0 mm 0.00 in0.0 mm 0.00 in0.0 mm
11:55 PM 56.6°F13.7°C 52.2°F11.2°C 66% 2.4 mph NNW3.9 kmh NNW 2.4 mph3.9 kmh 30.19 in1022.4 mb 0.00 in0.0 mm 0.00 in0.0 mm 0.00 in0.0 mm
11:58 PM 56.4°F13.6°C 52.3°F11.3°C 67% Calm Calm -- 30.19 in1022.4 mb 0.00 in0.0 mm 0.00 in0.0 mm 0.00 in0.0 mm